Wetterdaten: aktuell Montag, 25.01.2021 08:54
Datum Zeit Temp. A. Feuchte A. Luftdruck Regen Wind Richtung Richtung Sonnenschein UV Solar Taupunkt Windchill Windben Empfang
25.01.2021 08:54 -1,1 C 89 % 1002,0 hPa 0,0 l/m 8,9 kts (3 Bft) W 279 0 min 0,0 UV-I 90 W/m -2,7 C -9,2 C 10,4 kts (3 Bft) 100,00 %
25.01.2021 08:53 -1,2 C 89 % 1002,0 hPa 0,0 l/m 9,3 kts (3 Bft) W 271 0 min 0,0 UV-I 84 W/m -2,8 C -9,7 C 10,4 kts (3 Bft) 100,00 %
25.01.2021 08:52 -1,2 C 89 % 1002,0 hPa 0,0 l/m 8,6 kts (3 Bft) W 273 0 min 0,0 UV-I 83 W/m -2,8 C -9,0 C 9,6 kts (3 Bft) 100,00 %
25.01.2021 08:51 -1,2 C 89 % 1002,0 hPa 0,0 l/m 8,3 kts (3 Bft) W 274 0 min 0,0 UV-I 79 W/m -2,8 C -8,7 C 10,4 kts (3 Bft) 100,00 %
25.01.2021 08:50 -1,2 C 89 % 1002,0 hPa 0,0 l/m 9,0 kts (3 Bft) W 275 0 min 0,0 UV-I 81 W/m -2,8 C -9,4 C 10,4 kts (3 Bft) 100,00 %
25.01.2021 08:49 -1,2 C 89 % 1002,0 hPa 0,0 l/m 9,2 kts (3 Bft) W 274 0 min 0,0 UV-I 79 W/m -2,8 C -9,6 C 11,3 kts (4 Bft) 95,83 %
25.01.2021 08:48 -1,2 C 89 % 1002,0 hPa 0,0 l/m 6,5 kts (2 Bft) W 277 0 min 0,0 UV-I 97 W/m -2,8 C -6,4 C 7,8 kts (3 Bft) 100,00 %
25.01.2021 08:47 -1,2 C 89 % 1001,9 hPa 0,0 l/m 7,6 kts (3 Bft) W 267 0 min 0,0 UV-I 81 W/m -2,8 C -7,8 C 9,6 kts (3 Bft) 100,00 %
25.01.2021 08:46 -1,2 C 89 % 1002,1 hPa 0,0 l/m 8,3 kts (3 Bft) W 278 0 min 0,0 UV-I 69 W/m -2,8 C -8,6 C 9,6 kts (3 Bft) 100,00 %
25.01.2021 08:45 -1,2 C 89 % 1002,0 hPa 0,0 l/m 9,2 kts (3 Bft) W-NW 285 0 min 0,0 UV-I 65 W/m -2,8 C -9,6 C 11,3 kts (4 Bft) 100,00 %
25.01.2021 08:44 -1,2 C 89 % 1002,0 hPa 0,0 l/m 8,3 kts (3 Bft) W 281 0 min 0,0 UV-I 69 W/m -2,8 C -8,6 C 9,6 kts (3 Bft) 100,00 %
25.01.2021 08:43 -1,2 C 89 % 1002,0 hPa 0,0 l/m 10,0 kts (3 Bft) W 265 0 min 0,0 UV-I 62 W/m -2,8 C -10,5 C 11,3 kts (4 Bft) 100,00 %
25.01.2021 08:42 -1,2 C 89 % 1002,0 hPa 0,0 l/m 9,5 kts (3 Bft) W 276 0 min 0,0 UV-I 63 W/m -2,8 C -10,0 C 11,3 kts (4 Bft) 100,00 %
25.01.2021 08:41 -1,2 C 89 % 1001,9 hPa 0,0 l/m 8,8 kts (3 Bft) W 277 0 min 0,0 UV-I 60 W/m -2,8 C -9,2 C 9,6 kts (3 Bft) 100,00 %
25.01.2021 08:40 -1,2 C 89 % 1002,0 hPa 0,0 l/m 8,2 kts (3 Bft) W 269 0 min 0,0 UV-I 53 W/m -2,8 C -8,6 C 9,6 kts (3 Bft) 100,00 %
25.01.2021 08:39 -1,2 C 89 % 1002,0 hPa 0,0 l/m 8,0 kts (3 Bft) W 271 0 min 0,0 UV-I 51 W/m -2,8 C -8,3 C 9,6 kts (3 Bft) 100,00 %
25.01.2021 08:38 -1,2 C 89 % 1002,0 hPa 0,0 l/m 7,9 kts (3 Bft) W 272 0 min 0,0 UV-I 51 W/m -2,8 C -8,2 C 8,7 kts (3 Bft) 100,00 %
25.01.2021 08:37 -1,2 C 89 % 1002,0 hPa 0,0 l/m 8,0 kts (3 Bft) W-NW 282 0 min 0,0 UV-I 49 W/m -2,8 C -8,3 C 9,6 kts (3 Bft) 95,24 %
25.01.2021 08:36 -1,2 C 89 % 1002,0 hPa 0,0 l/m 9,3 kts (3 Bft) W 280 0 min 0,0 UV-I 49 W/m -2,8 C -9,8 C 11,3 kts (4 Bft) 95,65 %
25.01.2021 08:35 -1,2 C 89 % 1002,0 hPa 0,0 l/m 9,0 kts (3 Bft) W 271 0 min 0,0 UV-I 47 W/m -2,8 C -9,4 C 11,3 kts (4 Bft) 97,73 %
25.01.2021 08:34 -1,2 C 89 % 1001,9 hPa 0,0 l/m 7,4 kts (3 Bft) W 277 0 min 0,0 UV-I 47 W/m -2,8 C -7,6 C 7,8 kts (3 Bft) 100,00 %
25.01.2021 08:33 -1,2 C 89 % 1002,0 hPa 0,0 l/m 8,1 kts (3 Bft) W-NW 285 0 min 0,0 UV-I 47 W/m -2,8 C -8,4 C 9,6 kts (3 Bft) 100,00 %
25.01.2021 08:32 -1,2 C 89 % 1001,9 hPa 0,0 l/m 8,3 kts (3 Bft) W-NW 290 0 min 0,0 UV-I 46 W/m -2,8 C -8,6 C 8,7 kts (3 Bft) 97,14 %
25.01.2021 08:31 -1,3 C 89 % 1001,9 hPa 0,0 l/m 8,0 kts (3 Bft) W-NW 288 0 min 0,0 UV-I 46 W/m -2,9 C -8,5 C 8,7 kts (3 Bft) 96,88 %
25.01.2021 08:30 -1,3 C 89 % 1001,9 hPa 0,0 l/m 6,3 kts (2 Bft) W-NW 292 0 min 0,0 UV-I 46 W/m -2,9 C -6,3 C 7,0 kts (3 Bft) 100,00 %
25.01.2021 08:29 -1,3 C 90 % 1001,9 hPa 0,0 l/m 6,0 kts (2 Bft) W-NW 292 0 min 0,0 UV-I 46 W/m -2,7 C -5,8 C 7,0 kts (3 Bft) 95,65 %
25.01.2021 08:28 -1,3 C 90 % 1001,9 hPa 0,0 l/m 6,4 kts (2 Bft) W-NW 300 0 min 0,0 UV-I 44 W/m -2,7 C -6,4 C 7,8 kts (3 Bft) 100,00 %
25.01.2021 08:27 -1,3 C 90 % 1001,9 hPa 0,0 l/m 6,6 kts (3 Bft) W-NW 292 0 min 0,0 UV-I 40 W/m -2,7 C -6,7 C 7,8 kts (3 Bft) 98,78 %
25.01.2021 08:26 -1,3 C 89 % 1001,9 hPa 0,0 l/m 6,8 kts (3 Bft) W-NW 286 0 min 0,0 UV-I 39 W/m -2,9 C -6,9 C 7,8 kts (3 Bft) 95,83 %
25.01.2021 08:25 -1,3 C 90 % 1001,8 hPa 0,0 l/m 7,2 kts (3 Bft) W-NW 282 0 min 0,0 UV-I 33 W/m -2,7 C -7,5 C 8,7 kts (3 Bft) 96,55 %
25.01.2021 08:24 -1,3 C 90 % 1001,8 hPa 0,0 l/m 7,7 kts (3 Bft) W-NW 290 0 min 0,0 UV-I 32 W/m -2,7 C -8,1 C 9,6 kts (3 Bft) 100,00 %
25.01.2021 08:23 -1,3 C 89 % 1001,8 hPa 0,0 l/m 6,6 kts (3 Bft) W-NW 301 0 min 0,0 UV-I 32 W/m -2,9 C -6,7 C 8,7 kts (3 Bft) 100,00 %
25.01.2021 08:22 -1,4 C 89 % 1001,9 hPa 0,0 l/m 7,4 kts (3 Bft) W 261 0 min 0,0 UV-I 30 W/m -3,0 C -7,8 C 9,6 kts (3 Bft) 95,83 %
25.01.2021 08:21 -1,4 C 89 % 1001,8 hPa 0,0 l/m 9,1 kts (3 Bft) W-NW 287 0 min 0,0 UV-I 28 W/m -3,0 C -9,8 C 10,4 kts (3 Bft) 96,55 %
25.01.2021 08:20 -1,4 C 89 % 1001,8 hPa 0,0 l/m 8,2 kts (3 Bft) W 276 0 min 0,0 UV-I 26 W/m -3,0 C -8,8 C 9,6 kts (3 Bft) 100,00 %
25.01.2021 08:19 -1,4 C 89 % 1001,8 hPa 0,0 l/m 8,9 kts (3 Bft) W-NW 284 0 min 0,0 UV-I 26 W/m -3,0 C -9,5 C 10,4 kts (3 Bft) 100,00 %
25.01.2021 08:18 -1,4 C 89 % 1001,8 hPa 0,0 l/m 8,6 kts (3 Bft) W 271 0 min 0,0 UV-I 26 W/m -3,0 C -9,2 C 10,4 kts (3 Bft) 96,67 %
25.01.2021 08:17 -1,4 C 90 % 1001,8 hPa 0,0 l/m 6,9 kts (3 Bft) W 280 0 min 0,0 UV-I 25 W/m -2,8 C -7,1 C 7,8 kts (3 Bft) 95,65 %
25.01.2021 08:16 -1,4 C 90 % 1001,7 hPa 0,0 l/m 8,9 kts (3 Bft) W 268 0 min 0,0 UV-I 25 W/m -2,8 C -9,6 C 10,4 kts (3 Bft) 95,83 %
25.01.2021 08:15 -1,4 C 89 % 1001,6 hPa 0,0 l/m 9,2 kts (3 Bft) W 274 0 min 0,0 UV-I 23 W/m -3,0 C -9,9 C 10,4 kts (3 Bft) 96,55 %
25.01.2021 08:14 -1,4 C 89 % 1001,7 hPa 0,0 l/m 9,3 kts (3 Bft) W 269 0 min 0,0 UV-I 19 W/m -3,0 C -10,0 C 10,4 kts (3 Bft) 100,00 %
25.01.2021 08:13 -1,4 C 89 % 1001,7 hPa 0,0 l/m 9,0 kts (3 Bft) W 270 0 min 0,0 UV-I 19 W/m -3,0 C -9,6 C 9,6 kts (3 Bft) 100,00 %
25.01.2021 08:12 -1,4 C 89 % 1001,7 hPa 0,0 l/m 8,7 kts (3 Bft) W 263 0 min 0,0 UV-I 18 W/m -3,0 C -9,3 C 10,4 kts (3 Bft) 95,83 %
25.01.2021 08:11 -1,4 C 89 % 1001,5 hPa 0,0 l/m 10,4 kts (3 Bft) W 272 0 min 0,0 UV-I 18 W/m -3,0 C -11,1 C 11,3 kts (4 Bft) 100,00 %
25.01.2021 08:10 -1,4 C 89 % 1001,6 hPa 0,0 l/m 10,4 kts (3 Bft) W 264 0 min 0,0 UV-I 18 W/m -3,0 C -11,0 C 11,3 kts (4 Bft) 93,33 %
25.01.2021 08:09 -1,4 C 89 % 1001,6 hPa 0,0 l/m 10,0 kts (3 Bft) W 269 0 min 0,0 UV-I 16 W/m -3,0 C -10,7 C 12,1 kts (4 Bft) 100,00 %
25.01.2021 08:08 -1,4 C 89 % 1001,6 hPa 0,0 l/m 9,9 kts (3 Bft) W 269 0 min 0,0 UV-I 16 W/m -3,0 C -10,6 C 12,1 kts (4 Bft) 93,75 %
25.01.2021 08:07 -1,3 C 89 % 1001,5 hPa 0,0 l/m 11,6 kts (4 Bft) W-NW 284 0 min 0,0 UV-I 14 W/m -2,9 C -12,0 C 13,9 kts (4 Bft) 100,00 %
25.01.2021 08:06 -1,4 C 89 % 1001,4 hPa 0,0 l/m 10,9 kts (4 Bft) W 273 0 min 0,0 UV-I 14 W/m -3,0 C -11,5 C 13,0 kts (4 Bft) 100,00 %
25.01.2021 08:05 -1,4 C 89 % 1001,5 hPa 0,0 l/m 9,5 kts (3 Bft) W 266 0 min 0,0 UV-I 14 W/m -3,0 C -10,2 C 11,3 kts (4 Bft) 100,00 %
25.01.2021 08:04 -1,3 C 89 % 1001,5 hPa 0,0 l/m 11,4 kts (4 Bft) W-SW 252 0 min 0,0 UV-I 14 W/m -2,9 C -11,9 C 12,1 kts (4 Bft) 98,87 %
25.01.2021 08:03 -1,3 C 89 % 1001,5 hPa 0,0 l/m 13,0 kts (4 Bft) W 263 0 min 0,0 UV-I 14 W/m -2,9 C -13,1 C 15,7 kts (5 Bft) 100,00 %
25.01.2021 08:02 -1,4 C 89 % 1001,5 hPa 0,0 l/m 12,9 kts (4 Bft) W 259 0 min 0,0 UV-I 12 W/m -3,0 C -13,1 C 13,9 kts (4 Bft) 100,00 %
25.01.2021 08:01 -1,4 C 89 % 1001,5 hPa 0,0 l/m 11,8 kts (4 Bft) W-SW 258 0 min 0,0 UV-I 12 W/m -3,0 C -12,3 C 13,9 kts (4 Bft) 100,00 %
25.01.2021 08:00 -1,4 C 90 % 1001,5 hPa 0,0 l/m 11,4 kts (4 Bft) W-SW 253 0 min 0,0 UV-I 12 W/m -2,8 C -12,0 C 13,0 kts (4 Bft) 95,65 %
25.01.2021 07:59 -1,4 C 90 % 1001,5 hPa 0,0 l/m 10,7 kts (4 Bft) W 260 0 min 0,0 UV-I 12 W/m -2,8 C -11,4 C 12,1 kts (4 Bft) 100,00 %
25.01.2021 07:58 -1,4 C 90 % 1001,4 hPa 0,0 l/m 11,5 kts (4 Bft) W-SW 258 0 min 0,0 UV-I 11 W/m -2,8 C -12,1 C 13,0 kts (4 Bft) 94,29 %
25.01.2021 07:57 -1,4 C 89 % 1001,4 hPa 0,0 l/m 12,1 kts (4 Bft) W 267 0 min 0,0 UV-I 11 W/m -3,0 C -12,5 C 13,9 kts (4 Bft) 98,89 %
25.01.2021 07:56 -1,4 C 89 % 1001,5 hPa 0,0 l/m 11,6 kts (4 Bft) W 265 0 min 0,0 UV-I 9 W/m -3,0 C -12,1 C 13,9 kts (4 Bft) 100,00 %
25.01.2021 07:55 -1,4 C 90 % 1001,5 hPa 0,0 l/m 13,1 kts (4 Bft) W-SW 258 0 min 0,0 UV-I 9 W/m -2,8 C -13,3 C 14,8 kts (4 Bft) 100,00 %
25.01.2021 07:54 -1,4 C 90 % 1001,4 hPa 0,0 l/m 12,2 kts (4 Bft) W-SW 254 0 min 0,0 UV-I 9 W/m -2,8 C -12,6 C 14,8 kts (4 Bft) 100,00 %
25.01.2021 07:53 -1,4 C 90 % 1001,5 hPa 0,0 l/m 11,2 kts (4 Bft) W 281 0 min 0,0 UV-I 9 W/m -2,8 C -11,8 C 13,0 kts (4 Bft) 100,00 %
25.01.2021 07:52 -1,4 C 90 % 1001,5 hPa 0,0 l/m 11,4 kts (4 Bft) W-SW 257 0 min 0,0 UV-I 9 W/m -2,8 C -12,0 C 13,0 kts (4 Bft) 97,96 %
25.01.2021 07:51 -1,4 C 90 % 1001,4 hPa 0,0 l/m 12,1 kts (4 Bft) W-SW 255 0 min 0,0 UV-I 7 W/m -2,8 C -12,5 C 13,0 kts (4 Bft) 98,88 %
25.01.2021 07:50 -1,4 C 90 % 1001,4 hPa 0,0 l/m 11,8 kts (4 Bft) W 263 0 min 0,0 UV-I 5 W/m -2,8 C -12,3 C 14,8 kts (4 Bft) 100,00 %
25.01.2021 07:49 -1,4 C 90 % 1001,4 hPa 0,0 l/m 13,1 kts (4 Bft) W-SW 244 0 min 0,0 UV-I 5 W/m -2,8 C -13,3 C 13,9 kts (4 Bft) 100,00 %
25.01.2021 07:48 -1,4 C 90 % 1001,4 hPa 0,0 l/m 11,4 kts (4 Bft) W-SW 242 0 min 0,0 UV-I 5 W/m -2,8 C -12,0 C 13,0 kts (4 Bft) 95,83 %
25.01.2021 07:47 -1,4 C 90 % 1001,4 hPa 0,0 l/m 13,0 kts (4 Bft) W-SW 254 0 min 0,0 UV-I 0 W/m -2,8 C -13,2 C 14,8 kts (4 Bft) 95,00 %
25.01.2021 07:46 -1,4 C 90 % 1001,3 hPa 0,0 l/m 11,0 kts (4 Bft) W-SW 247 0 min 0,0 UV-I 0 W/m -2,8 C -11,6 C 12,1 kts (4 Bft) 100,00 %
25.01.2021 07:45 -1,4 C 90 % 1001,4 hPa 0,0 l/m 12,1 kts (4 Bft) SW 236 0 min 0,0 UV-I 0 W/m -2,8 C -12,6 C 13,0 kts (4 Bft) 100,00 %
25.01.2021 07:44 -1,4 C 90 % 1001,3 hPa 0,0 l/m 13,3 kts (4 Bft) W-SW 254 0 min 0,0 UV-I 0 W/m -2,8 C -13,5 C 14,8 kts (4 Bft) 100,00 %
25.01.2021 07:43 -1,4 C 90 % 1001,3 hPa 0,0 l/m 12,0 kts (4 Bft) W-SW 248 0 min 0,0 UV-I 0 W/m -2,8 C -12,5 C 14,8 kts (4 Bft) 100,00 %
25.01.2021 07:42 -1,4 C 90 % 1001,3 hPa 0,0 l/m 12,5 kts (4 Bft) W-SW 246 0 min 0,0 UV-I 0 W/m -2,8 C -12,9 C 13,9 kts (4 Bft) 100,00 %
25.01.2021 07:41 -1,4 C 90 % 1001,3 hPa 0,0 l/m 12,4 kts (4 Bft) W-SW 245 0 min 0,0 UV-I 0 W/m -2,8 C -12,8 C 13,9 kts (4 Bft) 100,00 %
25.01.2021 07:40 -1,4 C 90 % 1001,3 hPa 0,0 l/m 11,9 kts (4 Bft) W-SW 240 0 min 0,0 UV-I 0 W/m -2,8 C -12,4 C 13,0 kts (4 Bft) 100,00 %
25.01.2021 07:39 -1,4 C 90 % 1001,3 hPa 0,0 l/m 12,1 kts (4 Bft) W-SW 257 0 min 0,0 UV-I 0 W/m -2,8 C -12,6 C 13,0 kts (4 Bft) 100,00 %
25.01.2021 07:38 -1,4 C 90 % 1001,3 hPa 0,0 l/m 11,0 kts (4 Bft) W 260 0 min 0,0 UV-I 0 W/m -2,8 C -11,6 C 12,1 kts (4 Bft) 98,85 %
25.01.2021 07:37 -1,4 C 90 % 1001,3 hPa 0,0 l/m 11,2 kts (4 Bft) W-SW 254 0 min 0,0 UV-I 0 W/m -2,8 C -11,8 C 13,0 kts (4 Bft) 100,00 %
25.01.2021 07:36 -1,4 C 90 % 1001,3 hPa 0,0 l/m 11,7 kts (4 Bft) W-SW 254 0 min 0,0 UV-I 0 W/m -2,8 C -12,2 C 13,0 kts (4 Bft) 100,00 %
25.01.2021 07:35 -1,4 C 90 % 1001,3 hPa 0,0 l/m 11,8 kts (4 Bft) W-SW 257 0 min 0,0 UV-I 0 W/m -2,8 C -12,3 C 13,0 kts (4 Bft) 100,00 %
25.01.2021 07:34 -1,4 C 90 % 1001,3 hPa 0,0 l/m 11,4 kts (4 Bft) W-SW 250 0 min 0,0 UV-I 0 W/m -2,8 C -12,0 C 13,0 kts (4 Bft) 100,00 %
25.01.2021 07:33 -1,4 C 90 % 1001,3 hPa 0,0 l/m 11,7 kts (4 Bft) W-SW 248 0 min 0,0 UV-I 0 W/m -2,8 C -12,2 C 13,0 kts (4 Bft) 98,83 %
25.01.2021 07:32 -1,4 C 90 % 1001,3 hPa 0,0 l/m 12,1 kts (4 Bft) W-SW 248 0 min 0,0 UV-I 0 W/m -2,8 C -12,5 C 13,0 kts (4 Bft) 100,00 %
25.01.2021 07:31 -1,4 C 90 % 1001,3 hPa 0,0 l/m 11,2 kts (4 Bft) W-SW 246 0 min 0,0 UV-I 0 W/m -2,8 C -11,8 C 12,1 kts (4 Bft) 95,65 %
25.01.2021 07:30 -1,4 C 90 % 1001,2 hPa 0,0 l/m 11,0 kts (4 Bft) W 262 0 min 0,0 UV-I 0 W/m -2,8 C -11,6 C 13,0 kts (4 Bft) 100,00 %
25.01.2021 07:29 -1,4 C 90 % 1001,3 hPa 0,0 l/m 10,6 kts (3 Bft) W-SW 250 0 min 0,0 UV-I 0 W/m -2,8 C -11,3 C 11,3 kts (4 Bft) 100,00 %
25.01.2021 07:28 -1,4 C 90 % 1001,3 hPa 0,0 l/m 11,2 kts (4 Bft) W-SW 247 0 min 0,0 UV-I 0 W/m -2,8 C -11,8 C 12,1 kts (4 Bft) 100,00 %
25.01.2021 07:27 -1,4 C 90 % 1001,3 hPa 0,0 l/m 12,1 kts (4 Bft) W-SW 250 0 min 0,0 UV-I 0 W/m -2,8 C -12,6 C 13,0 kts (4 Bft) 98,81 %
25.01.2021 07:26 -1,4 C 90 % 1001,2 hPa 0,0 l/m 10,9 kts (4 Bft) W-SW 252 0 min 0,0 UV-I 0 W/m -2,8 C -11,5 C 13,0 kts (4 Bft) 100,00 %
25.01.2021 07:25 -1,4 C 90 % 1001,2 hPa 0,0 l/m 11,3 kts (4 Bft) W-SW 256 0 min 0,0 UV-I 0 W/m -2,8 C -11,9 C 12,1 kts (4 Bft) 100,00 %
25.01.2021 07:24 -1,3 C 90 % 1001,2 hPa 0,0 l/m 11,5 kts (4 Bft) W 263 0 min 0,0 UV-I 0 W/m -2,7 C -11,9 C 12,1 kts (4 Bft) 100,00 %
25.01.2021 07:23 -1,3 C 90 % 1001,2 hPa 0,0 l/m 10,4 kts (3 Bft) W 259 0 min 0,0 UV-I 0 W/m -2,7 C -10,9 C 12,1 kts (4 Bft) 100,00 %
25.01.2021 07:22 -1,3 C 90 % 1001,2 hPa 0,0 l/m 12,4 kts (4 Bft) W-SW 255 0 min 0,0 UV-I 0 W/m -2,7 C -12,6 C 13,0 kts (4 Bft) 96,88 %
25.01.2021 07:21 -1,3 C 90 % 1001,3 hPa 0,0 l/m 9,2 kts (3 Bft) W-SW 246 0 min 0,0 UV-I 0 W/m -2,7 C -9,8 C 12,1 kts (4 Bft) 100,00 %
25.01.2021 07:20 -1,3 C 90 % 1001,2 hPa 0,0 l/m 11,1 kts (4 Bft) W-SW 256 0 min 0,0 UV-I 0 W/m -2,7 C -11,6 C 12,1 kts (4 Bft) 100,00 %
25.01.2021 07:19 -1,3 C 90 % 1001,3 hPa 0,0 l/m 10,6 kts (3 Bft) W-SW 250 0 min 0,0 UV-I 0 W/m -2,7 C -11,1 C 12,1 kts (4 Bft) 100,00 %
25.01.2021 07:18 -1,3 C 91 % 1001,3 hPa 0,0 l/m 12,1 kts (4 Bft) W-SW 250 0 min 0,0 UV-I 0 W/m -2,6 C -12,5 C 13,0 kts (4 Bft) 100,00 %
25.01.2021 07:17 -1,3 C 91 % 1001,2 hPa 0,0 l/m 11,3 kts (4 Bft) W-SW 253 0 min 0,0 UV-I 0 W/m -2,6 C -11,7 C 13,0 kts (4 Bft) 100,00 %
25.01.2021 07:16 -1,3 C 91 % 1001,3 hPa 0,0 l/m 11,7 kts (4 Bft) W-SW 252 0 min 0,0 UV-I 0 W/m -2,6 C -12,1 C 13,0 kts (4 Bft) 96,15 %
25.01.2021 07:15 -1,3 C 91 % 1001,2 hPa 0,0 l/m 12,0 kts (4 Bft) W 261 0 min 0,0 UV-I 0 W/m -2,6 C -12,3 C 13,0 kts (4 Bft) 100,00 %
25.01.2021 07:14 -1,3 C 91 % 1001,2 hPa 0,0 l/m 11,7 kts (4 Bft) W-SW 257 0 min 0,0 UV-I 0 W/m -2,6 C -12,1 C 12,1 kts (4 Bft) 92,86 %
25.01.2021 07:13 -1,3 C 91 % 1001,2 hPa 0,0 l/m 11,6 kts (4 Bft) W-SW 244 0 min 0,0 UV-I 0 W/m -2,6 C -12,0 C 13,0 kts (4 Bft) 100,00 %
25.01.2021 07:12 -1,3 C 91 % 1001,2 hPa 0,0 l/m 11,1 kts (4 Bft) W-SW 245 0 min 0,0 UV-I 0 W/m -2,6 C -11,6 C 13,0 kts (4 Bft) 100,00 %
25.01.2021 07:11 -1,3 C 91 % 1001,2 hPa 0,0 l/m 11,4 kts (4 Bft) W-SW 246 0 min 0,0 UV-I 0 W/m -2,6 C -11,9 C 12,1 kts (4 Bft) 100,00 %
25.01.2021 07:10 -1,3 C 91 % 1001,2 hPa 0,0 l/m 11,9 kts (4 Bft) W-SW 250 0 min 0,0 UV-I 0 W/m -2,6 C -12,2 C 13,0 kts (4 Bft) 100,00 %
25.01.2021 07:09 -1,3 C 91 % 1001,3 hPa 0,0 l/m 9,3 kts (3 Bft) W-SW 240 0 min 0,0 UV-I 0 W/m -2,6 C -9,9 C 11,3 kts (4 Bft) 100,00 %
25.01.2021 07:08 -1,3 C 91 % 1001,2 hPa 0,0 l/m 8,4 kts (3 Bft) W-SW 246 0 min 0,0 UV-I 0 W/m -2,6 C -8,9 C 9,6 kts (3 Bft) 100,00 %
25.01.2021 07:07 -1,3 C 91 % 1001,2 hPa 0,0 l/m 10,3 kts (3 Bft) W-SW 246 0 min 0,0 UV-I 0 W/m -2,6 C -10,8 C 11,3 kts (4 Bft) 100,00 %
25.01.2021 07:06 -1,3 C 91 % 1001,2 hPa 0,0 l/m 10,4 kts (3 Bft) W-SW 244 0 min 0,0 UV-I 0 W/m -2,6 C -11,0 C 12,1 kts (4 Bft) 100,00 %
25.01.2021 07:05 -1,3 C 91 % 1001,2 hPa 0,0 l/m 10,6 kts (3 Bft) W-SW 253 0 min 0,0 UV-I 0 W/m -2,6 C -11,1 C 12,1 kts (4 Bft) 100,00 %
25.01.2021 07:04 -1,3 C 91 % 1001,2 hPa 0,0 l/m 10,0 kts (3 Bft) W-SW 249 0 min 0,0 UV-I 0 W/m -2,6 C -10,6 C 11,3 kts (4 Bft) 98,73 %
25.01.2021 07:03 -1,3 C 91 % 1001,2 hPa 0,0 l/m 9,3 kts (3 Bft) W 263 0 min 0,0 UV-I 0 W/m -2,6 C -9,9 C 10,4 kts (3 Bft) 100,00 %
25.01.2021 07:02 -1,3 C 91 % 1001,1 hPa 0,0 l/m 10,2 kts (3 Bft) W 265 0 min 0,0 UV-I 0 W/m -2,6 C -10,7 C 11,3 kts (4 Bft) 100,00 %
25.01.2021 07:01 -1,3 C 91 % 1001,2 hPa 0,0 l/m 9,1 kts (3 Bft) W-SW 253 0 min 0,0 UV-I 0 W/m -2,6 C -9,7 C 11,3 kts (4 Bft) 100,00 %
25.01.2021 07:00 -1,3 C 91 % 1001,1 hPa 0,0 l/m 10,9 kts (4 Bft) W 260 0 min 0,0 UV-I 0 W/m -2,6 C -11,4 C 12,1 kts (4 Bft) 100,00 %
25.01.2021 06:59 -1,3 C 91 % 1001,2 hPa 0,0 l/m 9,9 kts (3 Bft) W-SW 250 0 min 0,0 UV-I 0 W/m -2,6 C -10,5 C 11,3 kts (4 Bft) 100,00 %
25.01.2021 06:58 -1,3 C 91 % 1001,1 hPa 0,0 l/m 9,2 kts (3 Bft) W 259 0 min 0,0 UV-I 0 W/m -2,6 C -9,8 C 11,3 kts (4 Bft) 95,65 %
25.01.2021 06:57 -1,3 C 91 % 1001,1 hPa 0,0 l/m 11,0 kts (4 Bft) W-SW 254 0 min 0,0 UV-I 0 W/m -2,6 C -11,5 C 12,1 kts (4 Bft) 100,00 %
25.01.2021 06:56 -1,3 C 91 % 1001,1 hPa 0,0 l/m 10,3 kts (3 Bft) W-SW 252 0 min 0,0 UV-I 0 W/m -2,6 C -10,9 C 11,3 kts (4 Bft) 100,00 %
25.01.2021 06:55 -1,3 C 91 % 1001,1 hPa 0,0 l/m 10,5 kts (3 Bft) W-SW 257 0 min 0,0 UV-I 0 W/m -2,6 C -11,1 C 11,3 kts (4 Bft) 100,00 %
25.01.2021 06:54 -1,3 C 91 % 1001,1 hPa 0,0 l/m 9,8 kts (3 Bft) W 260 0 min 0,0 UV-I 0 W/m -2,6 C -10,3 C 12,1 kts (4 Bft) 100,00 %
25.01.2021 06:53 -1,3 C 91 % 1001,1 hPa 0,0 l/m 10,2 kts (3 Bft) W-NW 284 0 min 0,0 UV-I 0 W/m -2,6 C -10,7 C 11,3 kts (4 Bft) 100,00 %
25.01.2021 06:52 -1,3 C 92 % 1001,1 hPa 0,0 l/m 10,9 kts (4 Bft) W 263 0 min 0,0 UV-I 0 W/m -2,4 C -11,4 C 12,1 kts (4 Bft) 100,00 %
25.01.2021 06:51 -1,3 C 91 % 1001,1 hPa 0,0 l/m 12,5 kts (4 Bft) W 260 0 min 0,0 UV-I 0 W/m -2,6 C -12,7 C 13,9 kts (4 Bft) 96,55 %
25.01.2021 06:50 -1,3 C 92 % 1001,0 hPa 0,0 l/m 11,4 kts (4 Bft) W-SW 257 0 min 0,0 UV-I 0 W/m -2,4 C -11,9 C 13,0 kts (4 Bft) 97,37 %
25.01.2021 06:49 -1,3 C 92 % 1001,1 hPa 0,0 l/m 11,6 kts (4 Bft) W 274 0 min 0,0 UV-I 0 W/m -2,4 C -12,0 C 13,0 kts (4 Bft) 98,70 %
25.01.2021 06:48 -1,3 C 92 % 1001,0 hPa 0,0 l/m 13,0 kts (4 Bft) W-SW 258 0 min 0,0 UV-I 0 W/m -2,4 C -13,1 C 14,8 kts (4 Bft) 100,00 %
25.01.2021 06:47 -1,3 C 92 % 1001,0 hPa 0,0 l/m 12,3 kts (4 Bft) W-SW 246 0 min 0,0 UV-I 0 W/m -2,4 C -12,6 C 13,9 kts (4 Bft) 96,15 %
25.01.2021 06:46 -1,3 C 92 % 1001,0 hPa 0,0 l/m 10,9 kts (4 Bft) W-SW 253 0 min 0,0 UV-I 0 W/m -2,4 C -11,4 C 13,0 kts (4 Bft) 100,00 %
25.01.2021 06:45 -1,3 C 92 % 1001,0 hPa 0,0 l/m 8,2 kts (3 Bft) SW 232 0 min 0,0 UV-I 0 W/m -2,4 C -8,7 C 10,4 kts (3 Bft) 92,86 %
25.01.2021 06:44 -1,3 C 92 % 1001,0 hPa 0,0 l/m 9,1 kts (3 Bft) W 263 0 min 0,0 UV-I 0 W/m -2,4 C -9,7 C 11,3 kts (4 Bft) 95,83 %
25.01.2021 06:43 -1,3 C 92 % 1001,0 hPa 0,0 l/m 10,4 kts (3 Bft) W 263 0 min 0,0 UV-I 0 W/m -2,4 C -11,0 C 12,1 kts (4 Bft) 100,00 %
25.01.2021 06:42 -1,3 C 92 % 1001,1 hPa 0,0 l/m 9,2 kts (3 Bft) W 259 0 min 0,0 UV-I 0 W/m -2,4 C -9,8 C 10,4 kts (3 Bft) 96,30 %
25.01.2021 06:41 -1,3 C 92 % 1001,1 hPa 0,0 l/m 10,6 kts (3 Bft) W-SW 248 0 min 0,0 UV-I 0 W/m -2,4 C -11,1 C 11,3 kts (4 Bft) 100,00 %
25.01.2021 06:40 -1,3 C 92 % 1001,0 hPa 0,0 l/m 11,1 kts (4 Bft) SW 228 0 min 0,0 UV-I 0 W/m -2,4 C -11,6 C 13,0 kts (4 Bft) 100,00 %
25.01.2021 06:39 -1,3 C 92 % 1001,1 hPa 0,0 l/m 12,1 kts (4 Bft) W-SW 240 0 min 0,0 UV-I 0 W/m -2,4 C -12,5 C 13,9 kts (4 Bft) 95,65 %
25.01.2021 06:38 -1,4 C 92 % 1001,0 hPa 0,0 l/m 10,5 kts (3 Bft) W 271 0 min 0,0 UV-I 0 W/m -2,5 C -11,2 C 12,1 kts (4 Bft) 96,67 %
25.01.2021 06:37 -1,4 C 92 % 1001,0 hPa 0,0 l/m 11,0 kts (4 Bft) SW 226 0 min 0,0 UV-I 0 W/m -2,5 C -11,6 C 13,0 kts (4 Bft) 100,00 %
25.01.2021 06:36 -1,4 C 92 % 1001,0 hPa 0,0 l/m 12,9 kts (4 Bft) W 259 0 min 0,0 UV-I 0 W/m -2,5 C -13,1 C 14,8 kts (4 Bft) 92,31 %
25.01.2021 06:35 -1,4 C 92 % 1001,0 hPa 0,0 l/m 10,6 kts (3 Bft) W-SW 252 0 min 0,0 UV-I 0 W/m -2,5 C -11,3 C 13,0 kts (4 Bft) 100,00 %
25.01.2021 06:34 -1,4 C 92 % 1001,0 hPa 0,0 l/m 11,0 kts (4 Bft) SW 234 0 min 0,0 UV-I 0 W/m -2,5 C -11,6 C 12,1 kts (4 Bft) 100,00 %
25.01.2021 06:33 -1,4 C 92 % 1001,0 hPa 0,0 l/m 12,6 kts (4 Bft) W-SW 251 0 min 0,0 UV-I 0 W/m -2,5 C -12,9 C 13,9 kts (4 Bft) 95,65 %
25.01.2021 06:32 -1,4 C 92 % 1001,0 hPa 0,0 l/m 11,8 kts (4 Bft) W-SW 249 0 min 0,0 UV-I 0 W/m -2,5 C -12,3 C 13,0 kts (4 Bft) 96,55 %
25.01.2021 06:31 -1,4 C 92 % 1001,0 hPa 0,0 l/m 13,1 kts (4 Bft) W 263 0 min 0,0 UV-I 0 W/m -2,5 C -13,3 C 13,9 kts (4 Bft) 100,00 %
25.01.2021 06:30 -1,4 C 92 % 1000,9 hPa 0,0 l/m 11,1 kts (4 Bft) W-SW 249 0 min 0,0 UV-I 0 W/m -2,5 C -11,7 C 13,0 kts (4 Bft) 97,56 %
25.01.2021 06:29 -1,5 C 92 % 1000,9 hPa 0,0 l/m 10,3 kts (3 Bft) W 259 0 min 0,0 UV-I 0 W/m -2,6 C -11,1 C 12,1 kts (4 Bft) 98,84 %
25.01.2021 06:28 -1,5 C 92 % 1000,9 hPa 0,0 l/m 10,2 kts (3 Bft) W 269 0 min 0,0 UV-I 0 W/m -2,6 C -11,0 C 11,3 kts (4 Bft) 100,00 %
25.01.2021 06:27 -1,6 C 92 % 1000,8 hPa 0,0 l/m 11,1 kts (4 Bft) W 261 0 min 0,0 UV-I 0 W/m -2,7 C -12,0 C 13,0 kts (4 Bft) 91,30 %
25.01.2021 06:26 -1,6 C 92 % 1000,8 hPa 0,0 l/m 11,6 kts (4 Bft) W-SW 254 0 min 0,0 UV-I 0 W/m -2,7 C -12,4 C 13,0 kts (4 Bft) 100,00 %
25.01.2021 06:25 -1,5 C 92 % 1000,8 hPa 0,0 l/m 11,4 kts (4 Bft) W-SW 257 0 min 0,0 UV-I 0 W/m -2,6 C -12,1 C 13,0 kts (4 Bft) 100,00 %
25.01.2021 06:24 -1,5 C 92 % 1000,7 hPa 0,0 l/m 11,3 kts (4 Bft) W-SW 246 0 min 0,0 UV-I 0 W/m -2,6 C -12,0 C 13,0 kts (4 Bft) 100,00 %
25.01.2021 06:23 -1,5 C 92 % 1000,6 hPa 0,0 l/m 11,2 kts (4 Bft) W-SW 258 0 min 0,0 UV-I 0 W/m -2,6 C -12,0 C 13,0 kts (4 Bft) 93,33 %
25.01.2021 06:22 -1,6 C 92 % 1000,7 hPa 0,0 l/m 11,0 kts (4 Bft) W-SW 253 0 min 0,0 UV-I 0 W/m -2,7 C -11,9 C 12,1 kts (4 Bft) 100,00 %
25.01.2021 06:21 -1,6 C 92 % 1000,7 hPa 0,0 l/m 10,2 kts (3 Bft) W-SW 250 0 min 0,0 UV-I 0 W/m -2,7 C -11,1 C 12,1 kts (4 Bft) 96,30 %
25.01.2021 06:20 -1,6 C 92 % 1000,7 hPa 0,0 l/m 11,4 kts (4 Bft) W 259 0 min 0,0 UV-I 0 W/m -2,7 C -12,3 C 13,0 kts (4 Bft) 100,00 %
25.01.2021 06:19 -1,5 C 92 % 1000,6 hPa 0,0 l/m 10,3 kts (3 Bft) W 267 0 min 0,0 UV-I 0 W/m -2,6 C -11,1 C 13,0 kts (4 Bft) 96,30 %
25.01.2021 06:18 -1,6 C 92 % 1000,7 hPa 0,0 l/m 11,2 kts (4 Bft) W-SW 249 0 min 0,0 UV-I 0 W/m -2,7 C -12,0 C 12,1 kts (4 Bft) 100,00 %
25.01.2021 06:17 -1,6 C 92 % 1000,7 hPa 0,0 l/m 11,4 kts (4 Bft) W-SW 242 0 min 0,0 UV-I 0 W/m -2,7 C -12,2 C 13,9 kts (4 Bft) 100,00 %
25.01.2021 06:16 -1,6 C 92 % 1000,6 hPa 0,0 l/m 10,4 kts (3 Bft) W-SW 250 0 min 0,0 UV-I 0 W/m -2,7 C -11,4 C 12,1 kts (4 Bft) 97,14 %
25.01.2021 06:15 -1,6 C 92 % 1000,7 hPa 0,0 l/m 10,0 kts (3 Bft) W-SW 242 0 min 0,0 UV-I 0 W/m -2,7 C -11,0 C 10,4 kts (3 Bft) 100,00 %
25.01.2021 06:14 -1,6 C 92 % 1000,6 hPa 0,0 l/m 10,4 kts (3 Bft) W-SW 255 0 min 0,0 UV-I 0 W/m -2,7 C -11,4 C 11,3 kts (4 Bft) 100,00 %
25.01.2021 06:13 -1,6 C 92 % 1000,7 hPa 0,0 l/m 9,7 kts (3 Bft) W 259 0 min 0,0 UV-I 0 W/m -2,7 C -10,7 C 11,3 kts (4 Bft) 91,67 %
25.01.2021 06:12 -1,6 C 92 % 1000,6 hPa 0,0 l/m 10,0 kts (3 Bft) W-SW 254 0 min 0,0 UV-I 0 W/m -2,7 C -10,9 C 11,3 kts (4 Bft) 96,15 %
25.01.2021 06:11 -1,6 C 92 % 1000,6 hPa 0,0 l/m 10,6 kts (3 Bft) W-SW 246 0 min 0,0 UV-I 0 W/m -2,7 C -11,6 C 11,3 kts (4 Bft) 95,83 %
25.01.2021 06:10 -1,6 C 92 % 1000,6 hPa 0,0 l/m 11,0 kts (4 Bft) W-SW 250 0 min 0,0 UV-I 0 W/m -2,7 C -11,9 C 12,1 kts (4 Bft) 96,88 %
25.01.2021 06:09 -1,6 C 92 % 1000,7 hPa 0,0 l/m 11,4 kts (4 Bft) W-SW 257 0 min 0,0 UV-I 0 W/m -2,7 C -12,2 C 12,1 kts (4 Bft) 92,86 %
25.01.2021 06:08 -1,6 C 92 % 1000,6 hPa 0,0 l/m 10,5 kts (3 Bft) W-SW 253 0 min 0,0 UV-I 0 W/m -2,7 C -11,5 C 11,3 kts (4 Bft) 100,00 %
25.01.2021 06:07 -1,6 C 92 % 1000,6 hPa 0,0 l/m 11,0 kts (4 Bft) W-SW 251 0 min 0,0 UV-I 0 W/m -2,7 C -11,8 C 12,1 kts (4 Bft) 100,00 %
25.01.2021 06:06 -1,6 C 92 % 1000,6 hPa 0,0 l/m 10,6 kts (3 Bft) W 259 0 min 0,0 UV-I 0 W/m -2,7 C -11,6 C 11,3 kts (4 Bft) 100,00 %
25.01.2021 06:05 -1,6 C 92 % 1000,6 hPa 0,0 l/m 11,0 kts (4 Bft) W-SW 256 0 min 0,0 UV-I 0 W/m -2,7 C -11,9 C 12,1 kts (4 Bft) 100,00 %
25.01.2021 06:04 -1,6 C 91 % 1000,5 hPa 0,0 l/m 11,9 kts (4 Bft) W-SW 250 0 min 0,0 UV-I 0 W/m -2,9 C -12,7 C 13,9 kts (4 Bft) 100,00 %
25.01.2021 06:03 -1,6 C 91 % 1000,5 hPa 0,0 l/m 10,2 kts (3 Bft) W 259 0 min 0,0 UV-I 0 W/m -2,9 C -11,1 C 12,1 kts (4 Bft) 100,00 %
25.01.2021 06:02 -1,5 C 91 % 1000,5 hPa 0,0 l/m 9,7 kts (3 Bft) W 261 0 min 0,0 UV-I 0 W/m -2,8 C -10,5 C 11,3 kts (4 Bft) 100,00 %
25.01.2021 06:01 -1,4 C 91 % 1000,5 hPa 0,0 l/m 9,3 kts (3 Bft) W 261 0 min 0,0 UV-I 0 W/m -2,7 C -10,0 C 10,4 kts (3 Bft) 100,00 %
25.01.2021 06:00 -1,4 C 91 % 1000,6 hPa 0,0 l/m 8,5 kts (3 Bft) W-SW 253 0 min 0,0 UV-I 0 W/m -2,7 C -9,1 C 9,6 kts (3 Bft) 100,00 %
25.01.2021 05:59 -1,4 C 91 % 1000,5 hPa 0,0 l/m 9,1 kts (3 Bft) W-SW 251 0 min 0,0 UV-I 0 W/m -2,7 C -9,8 C 9,6 kts (3 Bft) 100,00 %
25.01.2021 05:58 -1,3 C 91 % 1000,5 hPa 0,0 l/m 10,1 kts (3 Bft) W-SW 255 0 min 0,0 UV-I 0 W/m -2,6 C -10,7 C 10,4 kts (3 Bft) 100,00 %
25.01.2021 05:57 -1,3 C 91 % 1000,5 hPa 0,0 l/m 8,9 kts (3 Bft) W-SW 258 0 min 0,0 UV-I 0 W/m -2,6 C -9,5 C 10,4 kts (3 Bft) 100,00 %
25.01.2021 05:56 -1,3 C 91 % 1000,5 hPa 0,0 l/m 8,7 kts (3 Bft) W 269 0 min 0,0 UV-I 0 W/m -2,6 C -9,3 C 10,4 kts (3 Bft) 100,00 %
25.01.2021 05:55 -1,2 C 91 % 1000,5 hPa 0,0 l/m 8,3 kts (3 Bft) W 259 0 min 0,0 UV-I 0 W/m -2,5 C -8,7 C 9,6 kts (3 Bft) 100,00 %
25.01.2021 05:54 -1,2 C 91 % 1000,4 hPa 0,0 l/m 8,4 kts (3 Bft) W 262 0 min 0,0 UV-I 0 W/m -2,5 C -8,8 C 9,6 kts (3 Bft) 100,00 %
25.01.2021 05:53 -1,2 C 91 % 1000,5 hPa 0,0 l/m 9,3 kts (3 Bft) W-SW 256 0 min 0,0 UV-I 0 W/m -2,5 C -9,7 C 10,4 kts (3 Bft) 96,15 %
25.01.2021 05:52 -1,2 C 91 % 1000,5 hPa 0,0 l/m 9,0 kts (3 Bft) W 263 0 min 0,0 UV-I 0 W/m -2,5 C -9,4 C 11,3 kts (4 Bft) 100,00 %
25.01.2021 05:51 -1,1 C 91 % 1000,5 hPa 0,0 l/m 7,9 kts (3 Bft) W 261 0 min 0,0 UV-I 0 W/m -2,4 C -8,1 C 9,6 kts (3 Bft) 100,00 %
25.01.2021 05:50 -1,1 C 91 % 1000,5 hPa 0,0 l/m 7,2 kts (3 Bft) W 262 0 min 0,0 UV-I 0 W/m -2,4 C -7,3 C 9,6 kts (3 Bft) 100,00 %
25.01.2021 05:49 -1,1 C 91 % 1000,5 hPa 0,0 l/m 8,7 kts (3 Bft) W 279 0 min 0,0 UV-I 0 W/m -2,4 C -9,0 C 10,4 kts (3 Bft) 100,00 %
25.01.2021 05:48 -1,1 C 91 % 1000,5 hPa 0,0 l/m 7,7 kts (3 Bft) W 269 0 min 0,0 UV-I 0 W/m -2,4 C -7,9 C 9,6 kts (3 Bft) 100,00 %
25.01.2021 05:47 -1,1 C 91 % 1000,5 hPa 0,0 l/m 9,4 kts (3 Bft) W 277 0 min 0,0 UV-I 0 W/m -2,4 C -9,7 C 11,3 kts (4 Bft) 100,00 %
25.01.2021 05:46 -1,0 C 91 % 1000,4 hPa 0,0 l/m 8,9 kts (3 Bft) W 267 0 min 0,0 UV-I 0 W/m -2,3 C -9,0 C 11,3 kts (4 Bft) 100,00 %
25.01.2021 05:45 -1,0 C 91 % 1000,5 hPa 0,0 l/m 7,6 kts (3 Bft) W 277 0 min 0,0 UV-I 0 W/m -2,3 C -7,6 C 8,7 kts (3 Bft) 100,00 %
25.01.2021 05:44 -1,0 C 91 % 1000,4 hPa 0,0 l/m 6,1 kts (2 Bft) W 275 0 min 0,0 UV-I 0 W/m -2,3 C -5,6 C 6,1 kts (2 Bft) 98,83 %
25.01.2021 05:43 -1,0 C 91 % 1000,4 hPa 0,0 l/m 6,9 kts (3 Bft) W 273 0 min 0,0 UV-I 0 W/m -2,3 C -6,7 C 7,8 kts (3 Bft) 100,00 %
25.01.2021 05:42 -0,9 C 91 % 1000,4 hPa 0,0 l/m 7,1 kts (3 Bft) W 261 0 min 0,0 UV-I 0 W/m -2,2 C -6,9 C 8,7 kts (3 Bft) 100,00 %
25.01.2021 05:41 -0,9 C 91 % 1000,4 hPa 0,0 l/m 8,7 kts (3 Bft) W 265 0 min 0,0 UV-I 0 W/m -2,2 C -8,7 C 9,6 kts (3 Bft) 95,83 %
25.01.2021 05:40 -0,9 C 91 % 1000,4 hPa 0,0 l/m 9,0 kts (3 Bft) W 265 0 min 0,0 UV-I 0 W/m -2,2 C -9,1 C 11,3 kts (4 Bft) 100,00 %
25.01.2021 05:39 -0,9 C 91 % 1000,5 hPa 0,0 l/m 8,6 kts (3 Bft) W 267 0 min 0,0 UV-I 0 W/m -2,2 C -8,7 C 11,3 kts (4 Bft) 100,00 %
25.01.2021 05:38 -0,9 C 91 % 1000,5 hPa 0,0 l/m 8,6 kts (3 Bft) W-NW 282 0 min 0,0 UV-I 0 W/m -2,2 C -8,7 C 10,4 kts (3 Bft) 95,65 %
25.01.2021 05:37 -0,9 C 91 % 1000,5 hPa 0,0 l/m 9,8 kts (3 Bft) W 273 0 min 0,0 UV-I 0 W/m -2,2 C -9,8 C 11,3 kts (4 Bft) 100,00 %
25.01.2021 05:36 -0,9 C 91 % 1000,5 hPa 0,0 l/m 9,9 kts (3 Bft) W 278 0 min 0,0 UV-I 0 W/m -2,2 C -10,0 C 11,3 kts (4 Bft) 95,65 %
25.01.2021 05:35 -0,8 C 91 % 1000,5 hPa 0,0 l/m 11,0 kts (4 Bft) W 266 0 min 0,0 UV-I 0 W/m -2,1 C -10,9 C 12,1 kts (4 Bft) 100,00 %
25.01.2021 05:34 -0,8 C 91 % 1000,4 hPa 0,0 l/m 8,7 kts (3 Bft) W 261 0 min 0,0 UV-I 0 W/m -2,1 C -8,6 C 9,6 kts (3 Bft) 100,00 %
25.01.2021 05:33 -0,8 C 91 % 1000,5 hPa 0,0 l/m 7,9 kts (3 Bft) W 273 0 min 0,0 UV-I 0 W/m -2,1 C -7,7 C 9,6 kts (3 Bft) 100,00 %
25.01.2021 05:32 -0,8 C 91 % 1000,5 hPa 0,0 l/m 9,7 kts (3 Bft) W-SW 257 0 min 0,0 UV-I 0 W/m -2,1 C -9,7 C 11,3 kts (4 Bft) 100,00 %
25.01.2021 05:31 -0,8 C 91 % 1000,5 hPa 0,0 l/m 7,7 kts (3 Bft) W 279 0 min 0,0 UV-I 0 W/m -2,1 C -7,5 C 11,3 kts (4 Bft) 100,00 %
25.01.2021 05:30 -0,8 C 91 % 1000,5 hPa 0,0 l/m 7,0 kts (3 Bft) W 281 0 min 0,0 UV-I 0 W/m -2,1 C -6,6 C 7,8 kts (3 Bft) 100,00 %
25.01.2021 05:29 -0,8 C 91 % 1000,5 hPa 0,0 l/m 10,8 kts (4 Bft) W-SW 257 0 min 0,0 UV-I 0 W/m -2,1 C -10,7 C 13,0 kts (4 Bft) 100,00 %
25.01.2021 05:28 -0,8 C 91 % 1000,5 hPa 0,0 l/m 10,7 kts (3 Bft) W 266 0 min 0,0 UV-I 0 W/m -2,1 C -10,6 C 13,0 kts (4 Bft) 100,00 %
25.01.2021 05:27 -0,8 C 91 % 1000,5 hPa 0,0 l/m 9,8 kts (3 Bft) W 263 0 min 0,0 UV-I 0 W/m -2,1 C -9,7 C 12,1 kts (4 Bft) 96,15 %
25.01.2021 05:26 -0,8 C 91 % 1000,6 hPa 0,0 l/m 10,2 kts (3 Bft) W 271 0 min 0,0 UV-I 0 W/m -2,1 C -10,1 C 12,1 kts (4 Bft) 100,00 %
25.01.2021 05:25 -0,8 C 91 % 1000,5 hPa 0,0 l/m 8,6 kts (3 Bft) W-NW 284 0 min 0,0 UV-I 0 W/m -2,1 C -8,5 C 10,4 kts (3 Bft) 100,00 %
25.01.2021 05:24 -0,8 C 91 % 1000,5 hPa 0,0 l/m 9,6 kts (3 Bft) W-SW 253 0 min 0,0 UV-I 0 W/m -2,1 C -9,5 C 11,3 kts (4 Bft) 100,00 %
25.01.2021 05:23 -0,8 C 91 % 1000,5 hPa 0,0 l/m 11,0 kts (4 Bft) W-NW 284 0 min 0,0 UV-I 0 W/m -2,1 C -10,8 C 13,9 kts (4 Bft) 100,00 %
25.01.2021 05:22 -0,8 C 91 % 1000,5 hPa 0,0 l/m 10,0 kts (3 Bft) W 275 0 min 0,0 UV-I 0 W/m -2,1 C -10,0 C 12,1 kts (4 Bft) 100,00 %
25.01.2021 05:20 -0,8 C 91 % 1000,5 hPa 0,0 l/m 10,7 kts (3 Bft) W 265 0 min 0,0 UV-I 0 W/m -2,1 C -10,6 C 12,1 kts (4 Bft) 100,00 %
25.01.2021 05:19 -0,8 C 91 % 1000,5 hPa 0,0 l/m 10,3 kts (3 Bft) W 277 0 min 0,0 UV-I 0 W/m -2,1 C -10,2 C 11,3 kts (4 Bft) 100,00 %
25.01.2021 05:18 -0,8 C 90 % 1000,5 hPa 0,0 l/m 7,8 kts (3 Bft) W 270 0 min 0,0 UV-I 0 W/m -2,2 C -7,6 C 10,4 kts (3 Bft) 100,00 %
25.01.2021 05:17 -0,8 C 91 % 1000,5 hPa 0,0 l/m 9,1 kts (3 Bft) W-NW 284 0 min 0,0 UV-I 0 W/m -2,1 C -9,0 C 12,1 kts (4 Bft) 100,00 %
25.01.2021 05:16 -0,8 C 90 % 1000,6 hPa 0,0 l/m 10,7 kts (3 Bft) W 275 0 min 0,0 UV-I 0 W/m -2,2 C -10,6 C 14,8 kts (4 Bft) 95,83 %
25.01.2021 05:15 -0,8 C 90 % 1000,5 hPa 0,0 l/m 7,7 kts (3 Bft) W 273 0 min 0,0 UV-I 0 W/m -2,2 C -7,4 C 9,6 kts (3 Bft) 100,00 %
25.01.2021 05:14 -0,7 C 90 % 1000,6 hPa 0,0 l/m 8,1 kts (3 Bft) W 272 0 min 0,0 UV-I 0 W/m -2,1 C -7,8 C 10,4 kts (3 Bft) 93,33 %
25.01.2021 05:13 -0,8 C 91 % 1000,6 hPa 0,0 l/m 8,4 kts (3 Bft) W 273 0 min 0,0 UV-I 0 W/m -2,1 C -8,3 C 10,4 kts (3 Bft) 95,65 %
25.01.2021 05:12 -0,8 C 91 % 1000,5 hPa 0,0 l/m 9,5 kts (3 Bft) W 277 0 min 0,0 UV-I 0 W/m -2,1 C -9,4 C 11,3 kts (4 Bft) 100,00 %
25.01.2021 05:11 -0,8 C 91 % 1000,5 hPa 0,0 l/m 8,0 kts (3 Bft) W 275 0 min 0,0 UV-I 0 W/m -2,1 C -7,9 C 10,4 kts (3 Bft) 100,00 %
25.01.2021 05:10 -0,8 C 90 % 1000,6 hPa 0,0 l/m 11,1 kts (4 Bft) W 273 0 min 0,0 UV-I 0 W/m -2,2 C -10,9 C 13,0 kts (4 Bft) 100,00 %
25.01.2021 05:09 -0,7 C 90 % 1000,6 hPa 0,0 l/m 13,0 kts (4 Bft) W 266 0 min 0,0 UV-I 0 W/m -2,1 C -12,3 C 15,7 kts (5 Bft) 98,67 %
25.01.2021 05:08 -0,8 C 90 % 1000,6 hPa 0,0 l/m 11,0 kts (4 Bft) W-NW 288 0 min 0,0 UV-I 0 W/m -2,2 C -10,8 C 13,9 kts (4 Bft) 100,00 %
25.01.2021 05:07 -0,8 C 90 % 1000,5 hPa 0,0 l/m 9,9 kts (3 Bft) W 265 0 min 0,0 UV-I 0 W/m -2,2 C -9,8 C 13,0 kts (4 Bft) 100,00 %
25.01.2021 05:06 -0,8 C 90 % 1000,6 hPa 0,0 l/m 11,8 kts (4 Bft) W 280 0 min 0,0 UV-I 0 W/m -2,2 C -11,5 C 13,0 kts (4 Bft) 100,00 %
25.01.2021 05:05 -0,7 C 91 % 1000,6 hPa 0,0 l/m 9,0 kts (3 Bft) W 273 0 min 0,0 UV-I 0 W/m -2,0 C -8,8 C 11,3 kts (4 Bft) 100,00 %
25.01.2021 05:04 -0,7 C 90 % 1000,5 hPa 0,0 l/m 6,8 kts (3 Bft) W 267 0 min 0,0 UV-I 0 W/m -2,1 C -6,2 C 9,6 kts (3 Bft) 100,00 %
25.01.2021 05:03 -0,7 C 91 % 1000,5 hPa 0,0 l/m 10,2 kts (3 Bft) W 272 0 min 0,0 UV-I 0 W/m -2,0 C -10,0 C 13,0 kts (4 Bft) 100,00 %
25.01.2021 05:02 -0,7 C 91 % 1000,5 hPa 0,0 l/m 10,2 kts (3 Bft) W 279 0 min 0,0 UV-I 0 W/m -2,0 C -9,9 C 12,1 kts (4 Bft) 100,00 %
25.01.2021 05:01 -0,7 C 91 % 1000,5 hPa 0,0 l/m 8,1 kts (3 Bft) W 269 0 min 0,0 UV-I 0 W/m -2,0 C -7,8 C 9,6 kts (3 Bft) 100,00 %
25.01.2021 05:00 -0,7 C 91 % 1000,5 hPa 0,0 l/m 8,2 kts (3 Bft) W-NW 289 0 min 0,0 UV-I 0 W/m -2,0 C -8,0 C 9,6 kts (3 Bft) 100,00 %
25.01.2021 04:59 -0,7 C 91 % 1000,5 hPa 0,0 l/m 9,8 kts (3 Bft) W-NW 284 0 min 0,0 UV-I 0 W/m -2,0 C -9,6 C 11,3 kts (4 Bft) 100,00 %
25.01.2021 04:58 -0,7 C 91 % 1000,6 hPa 0,0 l/m 12,4 kts (4 Bft) W-NW 290 0 min 0,0 UV-I 0 W/m -2,0 C -11,9 C 14,8 kts (4 Bft) 100,00 %
25.01.2021 04:57 -0,7 C 91 % 1000,5 hPa 0,0 l/m 12,3 kts (4 Bft) W 277 0 min 0,0 UV-I 0 W/m -2,0 C -11,7 C 13,0 kts (4 Bft) 100,00 %
25.01.2021 04:56 -0,7 C 91 % 1000,5 hPa 0,0 l/m 11,2 kts (4 Bft) W 273 0 min 0,0 UV-I 0 W/m -2,0 C -10,9 C 13,0 kts (4 Bft) 100,00 %
25.01.2021 04:55 -0,7 C 91 % 1000,5 hPa 0,0 l/m 9,4 kts (3 Bft) W 272 0 min 0,0 UV-I 0 W/m -2,0 C -9,3 C 11,3 kts (4 Bft) 95,83 %
25.01.2021 04:54 -0,7 C 91 % 1000,5 hPa 0,0 l/m 10,3 kts (3 Bft) W-NW 283 0 min 0,0 UV-I 0 W/m -2,0 C -10,0 C 12,1 kts (4 Bft) 100,00 %
25.01.2021 04:53 -0,7 C 91 % 1000,5 hPa 0,0 l/m 12,6 kts (4 Bft) W 267 0 min 0,0 UV-I 0 W/m -2,0 C -12,0 C 15,7 kts (5 Bft) 95,83 %
25.01.2021 04:52 -0,7 C 91 % 1000,5 hPa 0,0 l/m 12,7 kts (4 Bft) W 271 0 min 0,0 UV-I 0 W/m -2,0 C -12,1 C 15,7 kts (5 Bft) 100,00 %
25.01.2021 04:51 -0,7 C 91 % 1000,5 hPa 0,0 l/m 11,7 kts (4 Bft) W 270 0 min 0,0 UV-I 0 W/m -2,0 C -11,3 C 13,9 kts (4 Bft) 96,55 %
25.01.2021 04:50 -0,7 C 90 % 1000,5 hPa 0,0 l/m 13,0 kts (4 Bft) W 263 0 min 0,0 UV-I 0 W/m -2,1 C -12,3 C 14,8 kts (4 Bft) 100,00 %
25.01.2021 04:49 -0,7 C 91 % 1000,5 hPa 0,0 l/m 8,6 kts (3 Bft) W 267 0 min 0,0 UV-I 0 W/m -2,0 C -8,4 C 11,3 kts (4 Bft) 95,83 %
25.01.2021 04:48 -0,7 C 91 % 1000,4 hPa 0,0 l/m 10,2 kts (3 Bft) W 262 0 min 0,0 UV-I 0 W/m -2,0 C -10,0 C 12,1 kts (4 Bft) 100,00 %
25.01.2021 04:47 -0,7 C 91 % 1000,5 hPa 0,0 l/m 11,2 kts (4 Bft) W 277 0 min 0,0 UV-I 0 W/m -2,0 C -10,9 C 12,1 kts (4 Bft) 93,33 %
25.01.2021 04:46 -0,7 C 91 % 1000,5 hPa 0,0 l/m 10,7 kts (4 Bft) W 259 0 min 0,0 UV-I 0 W/m -2,0 C -10,5 C 12,1 kts (4 Bft) 100,00 %
25.01.2021 04:45 -0,7 C 91 % 1000,5 hPa 0,0 l/m 9,9 kts (3 Bft) W-NW 286 0 min 0,0 UV-I 0 W/m -2,0 C -9,7 C 13,0 kts (4 Bft) 95,65 %
25.01.2021 04:44 -0,7 C 91 % 1000,4 hPa 0,0 l/m 10,5 kts (3 Bft) W-SW 257 0 min 0,0 UV-I 0 W/m -2,0 C -10,3 C 13,0 kts (4 Bft) 100,00 %
25.01.2021 04:43 -0,7 C 91 % 1000,5 hPa 0,0 l/m 11,6 kts (4 Bft) W 271 0 min 0,0 UV-I 0 W/m -2,0 C -11,2 C 13,0 kts (4 Bft) 92,86 %
25.01.2021 04:42 -0,7 C 91 % 1000,5 hPa 0,0 l/m 11,3 kts (4 Bft) W 269 0 min 0,0 UV-I 0 W/m -2,0 C -11,0 C 13,0 kts (4 Bft) 100,00 %
25.01.2021 04:41 -0,7 C 91 % 1000,5 hPa 0,0 l/m 10,6 kts (3 Bft) W 273 0 min 0,0 UV-I 0 W/m -2,0 C -10,4 C 13,0 kts (4 Bft) 98,00 %
25.01.2021 04:40 -0,7 C 91 % 1000,4 hPa 0,0 l/m 10,4 kts (3 Bft) W-NW 288 0 min 0,0 UV-I 0 W/m -2,0 C -10,2 C 12,1 kts (4 Bft) 98,55 %
25.01.2021 04:39 -0,7 C 91 % 1000,5 hPa 0,0 l/m 8,8 kts (3 Bft) W 264 0 min 0,0 UV-I 0 W/m -2,0 C -8,6 C 11,3 kts (4 Bft) 96,67 %
25.01.2021 04:38 -0,6 C 91 % 1000,4 hPa 0,0 l/m 9,0 kts (3 Bft) W 264 0 min 0,0 UV-I 0 W/m -1,9 C -8,7 C 10,4 kts (3 Bft) 100,00 %
25.01.2021 04:37 -0,7 C 91 % 1000,4 hPa 0,0 l/m 9,0 kts (3 Bft) W 265 0 min 0,0 UV-I 0 W/m -2,0 C -8,8 C 12,1 kts (4 Bft) 96,88 %
25.01.2021 04:36 -0,6 C 91 % 1000,4 hPa 0,0 l/m 9,3 kts (3 Bft) W 277 0 min 0,0 UV-I 0 W/m -1,9 C -9,0 C 10,4 kts (3 Bft) 100,00 %
25.01.2021 04:35 -0,6 C 91 % 1000,4 hPa 0,0 l/m 8,7 kts (3 Bft) W 259 0 min 0,0 UV-I 0 W/m -1,9 C -8,4 C 11,3 kts (4 Bft) 96,55 %
25.01.2021 04:34 -0,6 C 91 % 1000,4 hPa 0,0 l/m 8,9 kts (3 Bft) W 260 0 min 0,0 UV-I 0 W/m -1,9 C -8,5 C 11,3 kts (4 Bft) 100,00 %
25.01.2021 04:33 -0,6 C 91 % 1000,4 hPa 0,0 l/m 7,0 kts (3 Bft) W 271 0 min 0,0 UV-I 0 W/m -1,9 C -6,4 C 7,8 kts (3 Bft) 100,00 %
25.01.2021 04:32 -0,7 C 91 % 1000,4 hPa 0,0 l/m 8,8 kts (3 Bft) W 281 0 min 0,0 UV-I 0 W/m -2,0 C -8,6 C 11,3 kts (4 Bft) 96,97 %
25.01.2021 04:31 -0,6 C 91 % 1000,5 hPa 0,0 l/m 10,8 kts (4 Bft) W 273 0 min 0,0 UV-I 0 W/m -1,9 C -10,4 C 12,1 kts (4 Bft) 100,00 %
25.01.2021 04:30 -0,6 C 91 % 1000,5 hPa 0,0 l/m 11,8 kts (4 Bft) W 268 0 min 0,0 UV-I 0 W/m -1,9 C -11,3 C 15,7 kts (5 Bft) 95,83 %
25.01.2021 04:29 -0,6 C 91 % 1000,5 hPa 0,0 l/m 11,9 kts (4 Bft) W 281 0 min 0,0 UV-I 0 W/m -1,9 C -11,4 C 14,8 kts (4 Bft) 100,00 %
25.01.2021 04:28 -0,6 C 91 % 1000,5 hPa 0,0 l/m 10,5 kts (3 Bft) W 267 0 min 0,0 UV-I 0 W/m -1,9 C -10,1 C 14,8 kts (4 Bft) 95,83 %
25.01.2021 04:27 -0,6 C 91 % 1000,4 hPa 0,0 l/m 10,9 kts (4 Bft) W 275 0 min 0,0 UV-I 0 W/m -1,9 C -10,5 C 14,8 kts (4 Bft) 100,00 %
25.01.2021 04:26 -0,6 C 91 % 1000,5 hPa 0,0 l/m 13,2 kts (4 Bft) W 281 0 min 0,0 UV-I 0 W/m -1,9 C -12,3 C 14,8 kts (4 Bft) 96,67 %
25.01.2021 04:25 -0,6 C 91 % 1000,4 hPa 0,0 l/m 13,9 kts (4 Bft) W 275 0 min 0,0 UV-I 0 W/m -1,9 C -12,8 C 15,7 kts (5 Bft) 100,00 %
25.01.2021 04:24 -0,7 C 91 % 1000,5 hPa 0,0 l/m 12,6 kts (4 Bft) W 259 0 min 0,0 UV-I 0 W/m -2,0 C -12,0 C 13,9 kts (4 Bft) 95,24 %
25.01.2021 04:23 -0,7 C 91 % 1000,5 hPa 0,0 l/m 13,3 kts (4 Bft) W 259 0 min 0,0 UV-I 0 W/m -2,0 C -12,5 C 15,7 kts (5 Bft) 100,00 %
25.01.2021 04:22 -0,7 C 91 % 1000,5 hPa 0,0 l/m 13,1 kts (4 Bft) W 263 0 min 0,0 UV-I 0 W/m -2,0 C -12,4 C 14,8 kts (4 Bft) 100,00 %
25.01.2021 04:21 -0,7 C 91 % 1000,5 hPa 0,0 l/m 14,8 kts (4 Bft) W 263 0 min 0,0 UV-I 0 W/m -2,0 C -13,5 C 15,7 kts (5 Bft) 100,00 %
25.01.2021 04:20 -0,7 C 91 % 1000,5 hPa 0,0 l/m 13,4 kts (4 Bft) W 267 0 min 0,0 UV-I 0 W/m -2,0 C -12,6 C 15,7 kts (5 Bft) 95,83 %
25.01.2021 04:19 -0,7 C 91 % 1000,5 hPa 0,0 l/m 13,4 kts (4 Bft) W-SW 255 0 min 0,0 UV-I 0 W/m -2,0 C -12,6 C 15,7 kts (5 Bft) 100,00 %
25.01.2021 04:18 -0,7 C 91 % 1000,4 hPa 0,0 l/m 9,1 kts (3 Bft) W 278 0 min 0,0 UV-I 0 W/m -2,0 C -8,9 C 11,3 kts (4 Bft) 100,00 %
25.01.2021 04:17 -0,7 C 91 % 1000,4 hPa 0,0 l/m 12,4 kts (4 Bft) W 265 0 min 0,0 UV-I 0 W/m -2,0 C -11,8 C 15,7 kts (5 Bft) 95,65 %
25.01.2021 04:16 -0,7 C 91 % 1000,4 hPa 0,0 l/m 15,3 kts (4 Bft) W 280 0 min 0,0 UV-I 0 W/m -2,0 C -13,8 C 16,5 kts (5 Bft) 100,00 %
25.01.2021 04:15 -0,7 C 91 % 1000,4 hPa 0,0 l/m 16,1 kts (5 Bft) W 277 0 min 0,0 UV-I 0 W/m -2,0 C -14,3 C 18,3 kts (5 Bft) 95,65 %
25.01.2021 04:14 -0,7 C 91 % 1000,4 hPa 0,0 l/m 12,3 kts (4 Bft) W 265 0 min 0,0 UV-I 0 W/m -2,0 C -11,7 C 14,8 kts (4 Bft) 95,83 %
25.01.2021 04:13 -0,7 C 91 % 1000,4 hPa 0,0 l/m 10,3 kts (3 Bft) W 266 0 min 0,0 UV-I 0 W/m -2,0 C -10,0 C 13,9 kts (4 Bft) 100,00 %
25.01.2021 04:12 -0,7 C 91 % 1000,4 hPa 0,0 l/m 14,4 kts (4 Bft) W 268 0 min 0,0 UV-I 0 W/m -2,0 C -13,3 C 16,5 kts (5 Bft) 100,00 %
25.01.2021 04:11 -0,7 C 91 % 1000,4 hPa 0,0 l/m 14,7 kts (4 Bft) W 265 0 min 0,0 UV-I 0 W/m -2,0 C -13,5 C 16,5 kts (5 Bft) 100,00 %
25.01.2021 04:10 -0,7 C 91 % 1000,5 hPa 0,0 l/m 12,7 kts (4 Bft) W 267 0 min 0,0 UV-I 0 W/m -2,0 C -12,1 C 15,7 kts (5 Bft) 100,00 %
25.01.2021 04:09 -0,7 C 91 % 1000,5 hPa 0,0 l/m 10,6 kts (3 Bft) W-NW 292 0 min 0,0 UV-I 0 W/m -2,0 C -10,4 C 13,9 kts (4 Bft) 100,00 %
25.01.2021 04:08 -0,7 C 90 % 1000,4 hPa 0,0 l/m 11,4 kts (4 Bft) W 279 0 min 0,0 UV-I 0 W/m -2,1 C -11,0 C 13,9 kts (4 Bft) 100,00 %
25.01.2021 04:07 -0,7 C 90 % 1000,4 hPa 0,0 l/m 13,9 kts (4 Bft) W 276 0 min 0,0 UV-I 0 W/m -2,1 C -12,9 C 15,7 kts (5 Bft) 100,00 %
25.01.2021 04:06 -0,7 C 90 % 1000,3 hPa 0,0 l/m 14,4 kts (4 Bft) W 265 0 min 0,0 UV-I 0 W/m -2,1 C -13,3 C 16,5 kts (5 Bft) 100,00 %
25.01.2021 04:05 -0,7 C 90 % 1000,4 hPa 0,0 l/m 13,4 kts (4 Bft) W 277 0 min 0,0 UV-I 0 W/m -2,1 C -12,6 C 16,5 kts (5 Bft) 100,00 %
25.01.2021 04:04 -0,7 C 90 % 1000,4 hPa 0,0 l/m 10,9 kts (4 Bft) W 275 0 min 0,0 UV-I 0 W/m -2,1 C -10,6 C 13,0 kts (4 Bft) 98,15 %
25.01.2021 04:03 -0,7 C 90 % 1000,4 hPa 0,0 l/m 10,7 kts (3 Bft) W-NW 296 0 min 0,0 UV-I 0 W/m -2,1 C -10,4 C 12,1 kts (4 Bft) 100,00 %
25.01.2021 04:02 -0,7 C 90 % 1000,4 hPa 0,0 l/m 12,6 kts (4 Bft) W-NW 289 0 min 0,0 UV-I 0 W/m -2,1 C -12,0 C 16,5 kts (5 Bft) 97,22 %
25.01.2021 04:00 -0,8 C 90 % 1000,4 hPa 0,0 l/m 12,1 kts (4 Bft) W 278 0 min 0,0 UV-I 0 W/m -2,2 C -11,8 C 13,9 kts (4 Bft) 100,00 %
25.01.2021 03:59 -0,7 C 90 % 1000,4 hPa 0,0 l/m 11,6 kts (4 Bft) W-NW 283 0 min 0,0 UV-I 0 W/m -2,1 C -11,2 C 13,9 kts (4 Bft) 100,00 %
25.01.2021 03:58 -0,7 C 90 % 1000,4 hPa 0,0 l/m 12,7 kts (4 Bft) W-SW 252 0 min 0,0 UV-I 0 W/m -2,1 C -12,1 C 13,9 kts (4 Bft) 100,00 %
25.01.2021 03:57 -0,8 C 90 % 1000,4 hPa 0,0 l/m 8,9 kts (3 Bft) W-NW 294 0 min 0,0 UV-I 0 W/m -2,2 C -8,8 C 12,1 kts (4 Bft) 100,00 %
25.01.2021 03:56 -0,7 C 90 % 1000,4 hPa 0,0 l/m 12,1 kts (4 Bft) W-NW 285 0 min 0,0 UV-I 0 W/m -2,1 C -11,6 C 13,9 kts (4 Bft) 100,00 %
25.01.2021 03:55 -0,7 C 90 % 1000,3 hPa 0,0 l/m 10,7 kts (4 Bft) W 264 0 min 0,0 UV-I 0 W/m -2,1 C -10,5 C 12,1 kts (4 Bft) 98,81 %
25.01.2021 03:54 -0,8 C 90 % 1000,4 hPa 0,0 l/m 11,6 kts (4 Bft) W-SW 251 0 min 0,0 UV-I 0 W/m -2,2 C -11,4 C 13,9 kts (4 Bft) 100,00 %
25.01.2021 03:53 -0,8 C 90 % 1000,4 hPa 0,0 l/m 12,5 kts (4 Bft) W-NW 288 0 min 0,0 UV-I 0 W/m -2,2 C -12,0 C 14,8 kts (4 Bft) 100,00 %
25.01.2021 03:52 -0,8 C 90 % 1000,3 hPa 0,0 l/m 11,4 kts (4 Bft) W 269 0 min 0,0 UV-I 0 W/m -2,2 C -11,2 C 13,9 kts (4 Bft) 100,00 %
25.01.2021 03:51 -0,8 C 90 % 1000,3 hPa 0,0 l/m 10,5 kts (3 Bft) W 266 0 min 0,0 UV-I 0 W/m -2,2 C -10,4 C 13,0 kts (4 Bft) 100,00 %
25.01.2021 03:50 -0,8 C 90 % 1000,3 hPa 0,0 l/m 13,4 kts (4 Bft) W 268 0 min 0,0 UV-I 0 W/m -2,2 C -12,8 C 15,7 kts (5 Bft) 100,00 %
25.01.2021 03:49 -0,8 C 90 % 1000,3 hPa 0,0 l/m 11,2 kts (4 Bft) W 267 0 min 0,0 UV-I 0 W/m -2,2 C -11,0 C 13,0 kts (4 Bft) 100,00 %
25.01.2021 03:48 -0,8 C 90 % 1000,3 hPa 0,0 l/m 12,0 kts (4 Bft) W 266 0 min 0,0 UV-I 0 W/m -2,2 C -11,7 C 13,9 kts (4 Bft) 100,00 %
25.01.2021 03:47 -0,8 C 90 % 1000,3 hPa 0,0 l/m 13,4 kts (4 Bft) W 263 0 min 0,0 UV-I 0 W/m -2,2 C -12,7 C 16,5 kts (5 Bft) 100,00 %
25.01.2021 03:46 -0,8 C 90 % 1000,2 hPa 0,0 l/m 13,2 kts (4 Bft) W 269 0 min 0,0 UV-I 0 W/m -2,2 C -12,6 C 16,5 kts (5 Bft) 100,00 %
25.01.2021 03:45 -0,8 C 90 % 1000,2 hPa 0,0 l/m 13,2 kts (4 Bft) W 265 0 min 0,0 UV-I 0 W/m -2,2 C -12,6 C 15,7 kts (5 Bft) 100,00 %
25.01.2021 03:44 -0,8 C 90 % 1000,2 hPa 0,0 l/m 13,6 kts (4 Bft) W 274 0 min 0,0 UV-I 0 W/m -2,2 C -12,8 C 16,5 kts (5 Bft) 96,88 %
25.01.2021 03:43 -0,8 C 90 % 1000,2 hPa 0,0 l/m 10,2 kts (3 Bft) W 261 0 min 0,0 UV-I 0 W/m -2,2 C -10,1 C 13,0 kts (4 Bft) 100,00 %
25.01.2021 03:42 -0,8 C 90 % 1000,2 hPa 0,0 l/m 11,4 kts (4 Bft) W 275 0 min 0,0 UV-I 0 W/m -2,2 C -11,2 C 13,0 kts (4 Bft) 100,00 %
25.01.2021 03:41 -0,8 C 90 % 1000,2 hPa 0,0 l/m 12,5 kts (4 Bft) W 271 0 min 0,0 UV-I 0 W/m -2,2 C -12,0 C 13,9 kts (4 Bft) 100,00 %
25.01.2021 03:40 -0,8 C 90 % 1000,2 hPa 0,0 l/m 15,2 kts (4 Bft) W 275 0 min 0,0 UV-I 0 W/m -2,2 C -13,9 C 20,0 kts (5 Bft) 100,00 %
25.01.2021 03:39 -0,8 C 90 % 1000,1 hPa 0,0 l/m 15,1 kts (4 Bft) W 269 0 min 0,0 UV-I 0 W/m -2,2 C -13,9 C 19,1 kts (5 Bft) 100,00 %
25.01.2021 03:38 -0,8 C 90 % 1000,1 hPa 0,0 l/m 11,7 kts (4 Bft) W 269 0 min 0,0 UV-I 0 W/m -2,2 C -11,4 C 14,8 kts (4 Bft) 100,00 %
25.01.2021 03:37 -0,8 C 90 % 1000,1 hPa 0,0 l/m 14,1 kts (4 Bft) W 262 0 min 0,0 UV-I 0 W/m -2,2 C -13,3 C 15,7 kts (5 Bft) 100,00 %
25.01.2021 03:36 -0,8 C 90 % 1000,1 hPa 0,0 l/m 13,0 kts (4 Bft) W 273 0 min 0,0 UV-I 0 W/m -2,2 C -12,5 C 16,5 kts (5 Bft) 100,00 %
25.01.2021 03:35 -0,8 C 90 % 1000,1 hPa 0,0 l/m 15,2 kts (4 Bft) W 269 0 min 0,0 UV-I 0 W/m -2,2 C -13,9 C 16,5 kts (5 Bft) 100,00 %
25.01.2021 03:34 -0,8 C 90 % 1000,1 hPa 0,0 l/m 14,6 kts (4 Bft) W 262 0 min 0,0 UV-I 0 W/m -2,2 C -13,5 C 16,5 kts (5 Bft) 98,72 %
25.01.2021 03:33 -0,8 C 90 % 1000,1 hPa 0,0 l/m 14,4 kts (4 Bft) W 261 0 min 0,0 UV-I 0 W/m -2,2 C -13,4 C 16,5 kts (5 Bft) 100,00 %
25.01.2021 03:32 -0,8 C 90 % 1000,0 hPa 0,0 l/m 14,1 kts (4 Bft) W 269 0 min 0,0 UV-I 0 W/m -2,2 C -13,2 C 15,7 kts (5 Bft) 100,00 %
25.01.2021 03:31 -0,8 C 90 % 1000,1 hPa 0,0 l/m 13,0 kts (4 Bft) W 267 0 min 0,0 UV-I 0 W/m -2,2 C -12,5 C 15,7 kts (5 Bft) 100,00 %
25.01.2021 03:30 -0,8 C 90 % 1000,0 hPa 0,0 l/m 14,0 kts (4 Bft) W 259 0 min 0,0 UV-I 0 W/m -2,2 C -13,2 C 16,5 kts (5 Bft) 100,00 %
25.01.2021 03:29 -0,8 C 90 % 1000,1 hPa 0,0 l/m 17,3 kts (5 Bft) W-SW 257 0 min 0,0 UV-I 0 W/m -2,2 C -15,2 C 20,8 kts (5 Bft) 100,00 %
25.01.2021 03:28 -0,8 C 90 % 1000,0 hPa 0,0 l/m 15,3 kts (4 Bft) W 260 0 min 0,0 UV-I 0 W/m -2,2 C -14,0 C 19,1 kts (5 Bft) 100,00 %
25.01.2021 03:27 -0,8 C 90 % 1000,1 hPa 0,0 l/m 14,6 kts (4 Bft) W 269 0 min 0,0 UV-I 0 W/m -2,2 C -13,5 C 17,4 kts (5 Bft) 100,00 %
25.01.2021 03:26 -0,8 C 90 % 1000,1 hPa 0,0 l/m 13,4 kts (4 Bft) W 273 0 min 0,0 UV-I 0 W/m -2,2 C -12,7 C 15,7 kts (5 Bft) 100,00 %
25.01.2021 03:25 -0,8 C 90 % 1000,1 hPa 0,0 l/m 12,0 kts (4 Bft) W 261 0 min 0,0 UV-I 0 W/m -2,2 C -11,7 C 13,0 kts (4 Bft) 100,00 %
25.01.2021 03:24 -0,8 C 90 % 1000,1 hPa 0,0 l/m 13,4 kts (4 Bft) W 263 0 min 0,0 UV-I 0 W/m -2,2 C -12,7 C 14,8 kts (4 Bft) 100,00 %
25.01.2021 03:23 -0,8 C 90 % 1000,1 hPa 0,0 l/m 14,1 kts (4 Bft) W 270 0 min 0,0 UV-I 0 W/m -2,2 C -13,3 C 15,7 kts (5 Bft) 100,00 %
25.01.2021 03:22 -0,8 C 90 % 1000,1 hPa 0,0 l/m 13,2 kts (4 Bft) W 278 0 min 0,0 UV-I 0 W/m -2,2 C -12,6 C 15,7 kts (5 Bft) 100,00 %
25.01.2021 03:21 -0,8 C 90 % 1000,2 hPa 0,0 l/m 13,7 kts (4 Bft) W 269 0 min 0,0 UV-I 0 W/m -2,2 C -13,0 C 16,5 kts (5 Bft) 100,00 %
25.01.2021 03:20 -0,8 C 90 % 1000,1 hPa 0,0 l/m 11,3 kts (4 Bft) W 269 0 min 0,0 UV-I 0 W/m -2,2 C -11,1 C 14,8 kts (4 Bft) 100,00 %
25.01.2021 03:19 -0,8 C 90 % 1000,1 hPa 0,0 l/m 12,8 kts (4 Bft) W-SW 247 0 min 0,0 UV-I 0 W/m -2,2 C -12,3 C 15,7 kts (5 Bft) 100,00 %
25.01.2021 03:18 -0,8 C 90 % 1000,2 hPa 0,0 l/m 13,0 kts (4 Bft) W 265 0 min 0,0 UV-I 0 W/m -2,2 C -12,4 C 14,8 kts (4 Bft) 100,00 %
25.01.2021 03:17 -0,8 C 90 % 1000,2 hPa 0,0 l/m 11,6 kts (4 Bft) W 266 0 min 0,0 UV-I 0 W/m -2,2 C -11,4 C 13,0 kts (4 Bft) 100,00 %
25.01.2021 03:16 -0,8 C 90 % 1000,2 hPa 0,0 l/m 12,9 kts (4 Bft) W 263 0 min 0,0 UV-I 0 W/m -2,2 C -12,4 C 15,7 kts (5 Bft) 100,00 %
25.01.2021 03:15 -0,8 C 90 % 1000,2 hPa 0,0 l/m 10,9 kts (4 Bft) W 273 0 min 0,0 UV-I 0 W/m -2,2 C -10,7 C 12,1 kts (4 Bft) 100,00 %
25.01.2021 03:14 -0,8 C 90 % 1000,3 hPa 0,0 l/m 14,4 kts (4 Bft) W 273 0 min 0,0 UV-I 0 W/m -2,2 C -13,4 C 15,7 kts (5 Bft) 100,00 %
25.01.2021 03:13 -0,8 C 90 % 1000,2 hPa 0,0 l/m 12,1 kts (4 Bft) W 281 0 min 0,0 UV-I 0 W/m -2,2 C -11,8 C 15,7 kts (5 Bft) 100,00 %
25.01.2021 03:12 -0,8 C 90 % 1000,2 hPa 0,0 l/m 10,6 kts (3 Bft) W 279 0 min 0,0 UV-I 0 W/m -2,2 C -10,5 C 13,0 kts (4 Bft) 96,55 %
25.01.2021 03:11 -0,8 C 90 % 1000,3 hPa 0,0 l/m 10,8 kts (4 Bft) W-NW 282 0 min 0,0 UV-I 0 W/m -2,2 C -10,7 C 13,9 kts (4 Bft) 100,00 %
25.01.2021 03:10 -0,8 C 90 % 1000,3 hPa 0,0 l/m 15,2 kts (4 Bft) W 267 0 min 0,0 UV-I 0 W/m -2,2 C -13,9 C 19,1 kts (5 Bft) 100,00 %
25.01.2021 03:09 -0,8 C 90 % 1000,2 hPa 0,0 l/m 13,7 kts (4 Bft) W-NW 284 0 min 0,0 UV-I 0 W/m -2,2 C -13,0 C 14,8 kts (4 Bft) 95,12 %
25.01.2021 03:08 -0,8 C 90 % 1000,3 hPa 0,0 l/m 13,2 kts (4 Bft) W 264 0 min 0,0 UV-I 0 W/m -2,2 C -12,6 C 17,4 kts (5 Bft) 98,61 %
25.01.2021 03:07 -0,8 C 90 % 1000,3 hPa 0,0 l/m 11,8 kts (4 Bft) W 272 0 min 0,0 UV-I 0 W/m -2,2 C -11,5 C 16,5 kts (5 Bft) 100,00 %
25.01.2021 03:06 -0,8 C 90 % 1000,3 hPa 0,0 l/m 12,7 kts (4 Bft) W 280 0 min 0,0 UV-I 0 W/m -2,2 C -12,2 C 16,5 kts (5 Bft) 100,00 %
25.01.2021 03:05 -0,8 C 90 % 1000,2 hPa 0,0 l/m 14,0 kts (4 Bft) W 261 0 min 0,0 UV-I 0 W/m -2,2 C -13,2 C 15,7 kts (5 Bft) 100,00 %
25.01.2021 03:04 -0,8 C 90 % 1000,2 hPa 0,0 l/m 12,5 kts (4 Bft) W 276 0 min 0,0 UV-I 0 W/m -2,2 C -12,0 C 13,9 kts (4 Bft) 95,65 %
25.01.2021 03:03 -0,8 C 90 % 1000,3 hPa 0,0 l/m 12,7 kts (4 Bft) W 263 0 min 0,0 UV-I 0 W/m -2,2 C -12,2 C 14,8 kts (4 Bft) 100,00 %
25.01.2021 03:02 -0,8 C 90 % 1000,3 hPa 0,0 l/m 13,3 kts (4 Bft) W 266 0 min 0,0 UV-I 0 W/m -2,2 C -12,6 C 14,8 kts (4 Bft) 100,00 %
25.01.2021 03:01 -0,8 C 90 % 1000,4 hPa 0,0 l/m 13,6 kts (4 Bft) W 269 0 min 0,0 UV-I 0 W/m -2,2 C -12,9 C 14,8 kts (4 Bft) 100,00 %
25.01.2021 03:00 -0,8 C 90 % 1000,3 hPa 0,0 l/m 12,8 kts (4 Bft) W 259 0 min 0,0 UV-I 0 W/m -2,2 C -12,3 C 15,7 kts (5 Bft) 95,65 %
25.01.2021 02:59 -0,8 C 90 % 1000,4 hPa 0,0 l/m 13,1 kts (4 Bft) W 259 0 min 0,0 UV-I 0 W/m -2,2 C -12,5 C 15,7 kts (5 Bft) 100,00 %
25.01.2021 02:58 -0,8 C 90 % 1000,4 hPa 0,0 l/m 11,8 kts (4 Bft) W 272 0 min 0,0 UV-I 0 W/m -2,2 C -11,5 C 15,7 kts (5 Bft) 95,65 %
25.01.2021 02:57 -0,8 C 90 % 1000,3 hPa 0,0 l/m 10,8 kts (4 Bft) W 269 0 min 0,0 UV-I 0 W/m -2,2 C -10,7 C 13,0 kts (4 Bft) 95,65 %
25.01.2021 02:56 -0,8 C 90 % 1000,4 hPa 0,0 l/m 12,4 kts (4 Bft) W 259 0 min 0,0 UV-I 0 W/m -2,2 C -12,0 C 13,0 kts (4 Bft) 96,97 %
25.01.2021 02:55 -0,8 C 90 % 1000,3 hPa 0,0 l/m 13,3 kts (4 Bft) W 266 0 min 0,0 UV-I 0 W/m -2,2 C -12,7 C 15,7 kts (5 Bft) 100,00 %
25.01.2021 02:54 -0,8 C 90 % 1000,3 hPa 0,0 l/m 11,1 kts (4 Bft) W 263 0 min 0,0 UV-I 0 W/m -2,2 C -10,9 C 13,9 kts (4 Bft) 91,67 %
25.01.2021 02:53 -0,8 C 90 % 1000,3 hPa 0,0 l/m 12,1 kts (4 Bft) W 261 0 min 0,0 UV-I 0 W/m -2,2 C -11,8 C 13,9 kts (4 Bft) 100,00 %
25.01.2021 02:52 -0,8 C 90 % 1000,2 hPa 0,0 l/m 12,4 kts (4 Bft) W 266 0 min 0,0 UV-I 0 W/m -2,2 C -12,0 C 13,0 kts (4 Bft) 96,77 %
25.01.2021 02:51 -0,8 C 90 % 1000,3 hPa 0,0 l/m 13,1 kts (4 Bft) W 277 0 min 0,0 UV-I 0 W/m -2,2 C -12,5 C 14,8 kts (4 Bft) 100,00 %
25.01.2021 02:50 -0,8 C 90 % 1000,3 hPa 0,0 l/m 12,0 kts (4 Bft) W-SW 254 0 min 0,0 UV-I 0 W/m -2,2 C -11,7 C 13,9 kts (4 Bft) 100,00 %
25.01.2021 02:49 -0,7 C 90 % 1000,3 hPa 0,0 l/m 12,7 kts (4 Bft) W 268 0 min 0,0 UV-I 0 W/m -2,1 C -12,1 C 15,7 kts (5 Bft) 95,65 %
25.01.2021 02:48 -0,8 C 90 % 1000,3 hPa 0,0 l/m 13,3 kts (4 Bft) W 259 0 min 0,0 UV-I 0 W/m -2,2 C -12,7 C 16,5 kts (5 Bft) 100,00 %
25.01.2021 02:47 -0,8 C 90 % 1000,3 hPa 0,0 l/m 15,7 kts (5 Bft) W-SW 257 0 min 0,0 UV-I 0 W/m -2,2 C -14,2 C 17,4 kts (5 Bft) 96,15 %
25.01.2021 02:46 -0,8 C 90 % 1000,2 hPa 0,0 l/m 12,3 kts (4 Bft) W 267 0 min 0,0 UV-I 0 W/m -2,2 C -11,9 C 13,9 kts (4 Bft) 100,00 %
25.01.2021 02:45 -0,8 C 90 % 1000,4 hPa 0,0 l/m 11,4 kts (4 Bft) W 261 0 min 0,0 UV-I 0 W/m -2,2 C -11,2 C 13,9 kts (4 Bft) 96,15 %
25.01.2021 02:44 -0,8 C 90 % 1000,4 hPa 0,0 l/m 11,6 kts (4 Bft) W 262 0 min 0,0 UV-I 0 W/m -2,2 C -11,3 C 14,8 kts (4 Bft) 100,00 %
25.01.2021 02:43 -0,8 C 90 % 1000,4 hPa 0,0 l/m 10,7 kts (4 Bft) W 260 0 min 0,0 UV-I 0 W/m -2,2 C -10,6 C 14,8 kts (4 Bft) 97,56 %
25.01.2021 02:42 -0,7 C 90 % 1000,3 hPa 0,0 l/m 12,7 kts (4 Bft) W 265 0 min 0,0 UV-I 0 W/m -2,1 C -12,1 C 15,7 kts (5 Bft) 98,70 %
25.01.2021 02:41 -0,7 C 90 % 1000,4 hPa 0,0 l/m 15,8 kts (5 Bft) W-SW 252 0 min 0,0 UV-I 0 W/m -2,1 C -14,2 C 18,3 kts (5 Bft) 95,65 %
25.01.2021 02:40 -0,7 C 90 % 1000,4 hPa 0,0 l/m 15,7 kts (5 Bft) W-SW 258 0 min 0,0 UV-I 0 W/m -2,1 C -14,1 C 17,4 kts (5 Bft) 100,00 %
25.01.2021 02:39 -0,7 C 90 % 1000,4 hPa 0,0 l/m 15,6 kts (4 Bft) W 261 0 min 0,0 UV-I 0 W/m -2,1 C -14,0 C 18,3 kts (5 Bft) 95,65 %
25.01.2021 02:38 -0,7 C 90 % 1000,4 hPa 0,0 l/m 13,8 kts (4 Bft) W 262 0 min 0,0 UV-I 0 W/m -2,1 C -12,9 C 15,7 kts (5 Bft) 97,37 %
25.01.2021 02:37 -0,7 C 90 % 1000,4 hPa 0,0 l/m 13,2 kts (4 Bft) W 279 0 min 0,0 UV-I 0 W/m -2,1 C -12,4 C 14,8 kts (4 Bft) 100,00 %
25.01.2021 02:36 -0,7 C 89 % 1000,5 hPa 0,0 l/m 13,1 kts (4 Bft) W 261 0 min 0,0 UV-I 0 W/m -2,3 C -12,4 C 14,8 kts (4 Bft) 100,00 %
25.01.2021 02:35 -0,7 C 89 % 1000,5 hPa 0,0 l/m 11,9 kts (4 Bft) W 263 0 min 0,0 UV-I 0 W/m -2,3 C -11,4 C 15,7 kts (5 Bft) 95,65 %
25.01.2021 02:34 -0,7 C 89 % 1000,4 hPa 0,0 l/m 10,7 kts (4 Bft) W-SW 256 0 min 0,0 UV-I 0 W/m -2,3 C -10,5 C 13,0 kts (4 Bft) 100,00 %
25.01.2021 02:33 -0,7 C 89 % 1000,4 hPa 0,0 l/m 9,4 kts (3 Bft) W 267 0 min 0,0 UV-I 0 W/m -2,3 C -9,2 C 11,3 kts (4 Bft) 97,96 %
25.01.2021 02:32 -0,7 C 89 % 1000,4 hPa 0,0 l/m 12,3 kts (4 Bft) W 269 0 min 0,0 UV-I 0 W/m -2,3 C -11,8 C 14,8 kts (4 Bft) 98,75 %
25.01.2021 02:31 -0,7 C 89 % 1000,4 hPa 0,0 l/m 15,3 kts (4 Bft) W-SW 258 0 min 0,0 UV-I 0 W/m -2,3 C -13,8 C 17,4 kts (5 Bft) 95,83 %
25.01.2021 02:30 -0,7 C 89 % 1000,5 hPa 0,0 l/m 9,6 kts (3 Bft) W 261 0 min 0,0 UV-I 0 W/m -2,3 C -9,4 C 13,0 kts (4 Bft) 100,00 %
25.01.2021 02:29 -0,7 C 89 % 1000,4 hPa 0,0 l/m 9,4 kts (3 Bft) W 275 0 min 0,0 UV-I 0 W/m -2,3 C -9,2 C 11,3 kts (4 Bft) 96,67 %
25.01.2021 02:28 -0,7 C 89 % 1000,4 hPa 0,0 l/m 8,7 kts (3 Bft) W 270 0 min 0,0 UV-I 0 W/m -2,3 C -8,5 C 10,4 kts (3 Bft) 100,00 %
25.01.2021 02:27 -0,7 C 89 % 1000,5 hPa 0,0 l/m 8,6 kts (3 Bft) W-SW 250 0 min 0,0 UV-I 0 W/m -2,3 C -8,4 C 10,4 kts (3 Bft) 97,87 %
25.01.2021 02:26 -0,7 C 89 % 1000,5 hPa 0,0 l/m 9,2 kts (3 Bft) W 259 0 min 0,0 UV-I 0 W/m -2,3 C -9,0 C 11,3 kts (4 Bft) 98,79 %
25.01.2021 02:25 -0,7 C 89 % 1000,5 hPa 0,0 l/m 11,1 kts (4 Bft) W 260 0 min 0,0 UV-I 0 W/m -2,3 C -10,8 C 13,9 kts (4 Bft) 100,00 %
25.01.2021 02:24 -0,7 C 89 % 1000,5 hPa 0,0 l/m 12,2 kts (4 Bft) W-SW 258 0 min 0,0 UV-I 0 W/m -2,3 C -11,7 C 13,9 kts (4 Bft) 100,00 %
25.01.2021 02:23 -0,7 C 89 % 1000,5 hPa 0,0 l/m 10,1 kts (3 Bft) W 261 0 min 0,0 UV-I 0 W/m -2,3 C -9,9 C 11,3 kts (4 Bft) 98,77 %
25.01.2021 02:22 -0,7 C 89 % 1000,5 hPa 0,0 l/m 9,7 kts (3 Bft) W 274 0 min 0,0 UV-I 0 W/m -2,3 C -9,5 C 11,3 kts (4 Bft) 100,00 %
25.01.2021 02:21 -0,7 C 89 % 1000,5 hPa 0,0 l/m 7,0 kts (3 Bft) W 273 0 min 0,0 UV-I 0 W/m -2,3 C -6,5 C 7,8 kts (3 Bft) 100,00 %
25.01.2021 02:20 -0,7 C 89 % 1000,5 hPa 0,0 l/m 6,3 kts (2 Bft) W-NW 287 0 min 0,0 UV-I 0 W/m -2,3 C -5,5 C 10,4 kts (3 Bft) 100,00 %
25.01.2021 02:19 -0,7 C 89 % 1000,5 hPa 0,0 l/m 9,4 kts (3 Bft) W-NW 284 0 min 0,0 UV-I 0 W/m -2,3 C -9,2 C 12,1 kts (4 Bft) 100,00 %
25.01.2021 02:18 -0,7 C 89 % 1000,5 hPa 0,0 l/m 10,4 kts (3 Bft) W-NW 294 0 min 0,0 UV-I 0 W/m -2,3 C -10,2 C 13,0 kts (4 Bft) 100,00 %
25.01.2021 02:17 -0,7 C 89 % 1000,5 hPa 0,0 l/m 8,3 kts (3 Bft) W 275 0 min 0,0 UV-I 0 W/m -2,3 C -8,1 C 11,3 kts (4 Bft) 96,30 %
25.01.2021 02:16 -0,7 C 89 % 1000,5 hPa 0,0 l/m 10,1 kts (3 Bft) W-SW 254 0 min 0,0 UV-I 0 W/m -2,3 C -9,9 C 11,3 kts (4 Bft) 95,45 %
25.01.2021 02:15 -0,6 C 89 % 1000,5 hPa 0,0 l/m 10,6 kts (3 Bft) W-SW 248 0 min 0,0 UV-I 0 W/m -2,2 C -10,2 C 12,1 kts (4 Bft) 98,79 %
25.01.2021 02:14 -0,7 C 89 % 1000,5 hPa 0,0 l/m 8,2 kts (3 Bft) W-NW 284 0 min 0,0 UV-I 0 W/m -2,3 C -8,0 C 10,4 kts (3 Bft) 100,00 %
25.01.2021 02:13 -0,7 C 89 % 1000,5 hPa 0,0 l/m 10,6 kts (3 Bft) W 267 0 min 0,0 UV-I 0 W/m -2,3 C -10,3 C 13,0 kts (4 Bft) 100,00 %
25.01.2021 02:12 -0,7 C 89 % 1000,4 hPa 0,0 l/m 12,4 kts (4 Bft) W 270 0 min 0,0 UV-I 0 W/m -2,3 C -11,8 C 13,9 kts (4 Bft) 100,00 %
25.01.2021 02:11 -0,7 C 89 % 1000,4 hPa 0,0 l/m 10,3 kts (3 Bft) W 272 0 min 0,0 UV-I 0 W/m -2,3 C -10,1 C 14,8 kts (4 Bft) 100,00 %
25.01.2021 02:10 -0,7 C 89 % 1000,5 hPa 0,0 l/m 10,8 kts (4 Bft) SW 236 0 min 0,0 UV-I 0 W/m -2,3 C -10,5 C 13,0 kts (4 Bft) 100,00 %
25.01.2021 02:09 -0,7 C 89 % 1000,5 hPa 0,0 l/m 10,0 kts (3 Bft) W-SW 251 0 min 0,0 UV-I 0 W/m -2,3 C -9,8 C 13,0 kts (4 Bft) 100,00 %
25.01.2021 02:08 -0,7 C 89 % 1000,4 hPa 0,0 l/m 9,6 kts (3 Bft) W-SW 251 0 min 0,0 UV-I 0 W/m -2,3 C -9,4 C 11,3 kts (4 Bft) 100,00 %
25.01.2021 02:07 -0,7 C 89 % 1000,5 hPa 0,0 l/m 10,3 kts (3 Bft) W-SW 256 0 min 0,0 UV-I 0 W/m -2,3 C -10,0 C 12,1 kts (4 Bft) 100,00 %
25.01.2021 02:06 -0,7 C 89 % 1000,5 hPa 0,0 l/m 10,3 kts (3 Bft) W 273 0 min 0,0 UV-I 0 W/m -2,3 C -10,1 C 12,1 kts (4 Bft) 100,00 %
25.01.2021 02:05 -0,7 C 89 % 1000,4 hPa 0,0 l/m 9,9 kts (3 Bft) W 272 0 min 0,0 UV-I 0 W/m -2,3 C -9,7 C 12,1 kts (4 Bft) 97,73 %
25.01.2021 02:04 -0,7 C 89 % 1000,4 hPa 0,0 l/m 9,7 kts (3 Bft) W-SW 252 0 min 0,0 UV-I 0 W/m -2,3 C -9,5 C 13,0 kts (4 Bft) 98,71 %
25.01.2021 02:03 -0,7 C 89 % 1000,4 hPa 0,0 l/m 13,8 kts (4 Bft) W-SW 257 0 min 0,0 UV-I 0 W/m -2,3 C -12,9 C 15,7 kts (5 Bft) 100,00 %
25.01.2021 02:02 -0,6 C 89 % 1000,4 hPa 0,0 l/m 12,4 kts (4 Bft) W-SW 240 0 min 0,0 UV-I 0 W/m -2,2 C -11,7 C 15,7 kts (5 Bft) 100,00 %
25.01.2021 02:01 -0,6 C 89 % 1000,4 hPa 0,0 l/m 11,6 kts (4 Bft) W-SW 249 0 min 0,0 UV-I 0 W/m -2,2 C -11,1 C 15,7 kts (5 Bft) 100,00 %
25.01.2021 02:00 -0,6 C 89 % 1000,3 hPa 0,0 l/m 11,0 kts (4 Bft) W-SW 257 0 min 0,0 UV-I 0 W/m -2,2 C -10,6 C 13,9 kts (4 Bft) 100,00 %
25.01.2021 01:59 -0,6 C 89 % 1000,4 hPa 0,0 l/m 11,0 kts (4 Bft) W-SW 242 0 min 0,0 UV-I 0 W/m -2,2 C -10,6 C 13,9 kts (4 Bft) 100,00 %
25.01.2021 01:58 -0,6 C 89 % 1000,4 hPa 0,0 l/m 11,9 kts (4 Bft) W 259 0 min 0,0 UV-I 0 W/m -2,2 C -11,4 C 15,7 kts (5 Bft) 95,83 %
25.01.2021 01:57 -0,6 C 89 % 1000,4 hPa 0,0 l/m 11,1 kts (4 Bft) W 271 0 min 0,0 UV-I 0 W/m -2,2 C -10,6 C 13,9 kts (4 Bft) 97,73 %
25.01.2021 01:56 -0,6 C 89 % 1000,3 hPa 0,0 l/m 10,7 kts (4 Bft) W-SW 258 0 min 0,0 UV-I 0 W/m -2,2 C -10,4 C 13,9 kts (4 Bft) 98,70 %
25.01.2021 01:55 -0,6 C 89 % 1000,3 hPa 0,0 l/m 11,4 kts (4 Bft) W 259 0 min 0,0 UV-I 0 W/m -2,2 C -10,9 C 13,9 kts (4 Bft) 96,15 %
25.01.2021 01:54 -0,6 C 89 % 1000,4 hPa 0,0 l/m 14,8 kts (4 Bft) W 263 0 min 0,0 UV-I 0 W/m -2,2 C -13,4 C 16,5 kts (5 Bft) 100,00 %
25.01.2021 01:53 -0,6 C 89 % 1000,3 hPa 0,0 l/m 11,7 kts (4 Bft) W 279 0 min 0,0 UV-I 0 W/m -2,2 C -11,2 C 13,0 kts (4 Bft) 95,65 %
25.01.2021 01:52 -0,6 C 89 % 1000,3 hPa 0,0 l/m 10,8 kts (4 Bft) W-SW 256 0 min 0,0 UV-I 0 W/m -2,2 C -10,4 C 13,9 kts (4 Bft) 95,83 %
25.01.2021 01:51 -0,6 C 89 % 1000,3 hPa 0,0 l/m 10,0 kts (3 Bft) SW 236 0 min 0,0 UV-I 0 W/m -2,2 C -9,7 C 12,1 kts (4 Bft) 100,00 %
25.01.2021 01:50 -0,6 C 89 % 1000,4 hPa 0,0 l/m 11,2 kts (4 Bft) W 261 0 min 0,0 UV-I 0 W/m -2,2 C -10,8 C 13,0 kts (4 Bft) 100,00 %
25.01.2021 01:49 -0,6 C 89 % 1000,4 hPa 0,0 l/m 13,2 kts (4 Bft) W-NW 287 0 min 0,0 UV-I 0 W/m -2,2 C -12,3 C 15,7 kts (5 Bft) 100,00 %
25.01.2021 01:48 -0,6 C 89 % 1000,4 hPa 0,0 l/m 12,7 kts (4 Bft) W 259 0 min 0,0 UV-I 0 W/m -2,2 C -11,9 C 17,4 kts (5 Bft) 100,00 %
25.01.2021 01:47 -0,6 C 89 % 1000,4 hPa 0,0 l/m 16,8 kts (5 Bft) W 265 0 min 0,0 UV-I 0 W/m -2,2 C -14,6 C 20,0 kts (5 Bft) 98,70 %
25.01.2021 01:46 -0,6 C 89 % 1000,4 hPa 0,0 l/m 10,4 kts (3 Bft) W 273 0 min 0,0 UV-I 0 W/m -2,2 C -10,1 C 15,7 kts (5 Bft) 100,00 %
25.01.2021 01:45 -0,6 C 88 % 1000,3 hPa 0,0 l/m 10,9 kts (4 Bft) W 259 0 min 0,0 UV-I 0 W/m -2,3 C -10,5 C 12,1 kts (4 Bft) 100,00 %
25.01.2021 01:44 -0,6 C 88 % 1000,4 hPa 0,0 l/m 10,6 kts (3 Bft) W 262 0 min 0,0 UV-I 0 W/m -2,3 C -10,2 C 12,1 kts (4 Bft) 95,65 %
25.01.2021 01:43 -0,6 C 88 % 1000,3 hPa 0,0 l/m 12,0 kts (4 Bft) W 270 0 min 0,0 UV-I 0 W/m -2,3 C -11,4 C 14,8 kts (4 Bft) 100,00 %
25.01.2021 01:42 -0,6 C 88 % 1000,3 hPa 0,0 l/m 13,3 kts (4 Bft) W 261 0 min 0,0 UV-I 0 W/m -2,3 C -12,4 C 16,5 kts (5 Bft) 100,00 %
25.01.2021 01:41 -0,6 C 88 % 1000,3 hPa 0,0 l/m 12,9 kts (4 Bft) W 273 0 min 0,0 UV-I 0 W/m -2,3 C -12,1 C 15,7 kts (5 Bft) 100,00 %
25.01.2021 01:40 -0,6 C 88 % 1000,2 hPa 0,0 l/m 13,4 kts (4 Bft) W 265 0 min 0,0 UV-I 0 W/m -2,3 C -12,5 C 15,7 kts (5 Bft) 100,00 %
25.01.2021 01:39 -0,6 C 88 % 1000,2 hPa 0,0 l/m 13,2 kts (4 Bft) W 261 0 min 0,0 UV-I 0 W/m -2,3 C -12,3 C 14,8 kts (4 Bft) 100,00 %
25.01.2021 01:38 -0,5 C 88 % 1000,2 hPa 0,0 l/m 13,7 kts (4 Bft) W-SW 257 0 min 0,0 UV-I 0 W/m -2,2 C -12,5 C 17,4 kts (5 Bft) 100,00 %
25.01.2021 01:37 -0,6 C 88 % 1000,2 hPa 0,0 l/m 15,8 kts (5 Bft) W-SW 257 0 min 0,0 UV-I 0 W/m -2,3 C -14,0 C 17,4 kts (5 Bft) 100,00 %
25.01.2021 01:36 -0,5 C 88 % 1000,2 hPa 0,0 l/m 14,1 kts (4 Bft) W-SW 248 0 min 0,0 UV-I 0 W/m -2,2 C -12,8 C 17,4 kts (5 Bft) 100,00 %
25.01.2021 01:35 -0,6 C 88 % 1000,1 hPa 0,0 l/m 10,2 kts (3 Bft) W-SW 242 0 min 0,0 UV-I 0 W/m -2,3 C -9,9 C 13,0 kts (4 Bft) 100,00 %
25.01.2021 01:34 -0,5 C 88 % 1000,2 hPa 0,0 l/m 11,3 kts (4 Bft) W-SW 248 0 min 0,0 UV-I 0 W/m -2,2 C -10,7 C 15,7 kts (5 Bft) 100,00 %
25.01.2021 01:33 -0,6 C 88 % 1000,2 hPa 0,0 l/m 12,0 kts (4 Bft) W 259 0 min 0,0 UV-I 0 W/m -2,3 C -11,4 C 15,7 kts (5 Bft) 100,00 %
25.01.2021 01:32 -0,5 C 88 % 1000,1 hPa 0,0 l/m 14,9 kts (4 Bft) W-SW 253 0 min 0,0 UV-I 0 W/m -2,2 C -13,3 C 18,3 kts (5 Bft) 100,00 %
25.01.2021 01:31 -0,5 C 88 % 1000,1 hPa 0,0 l/m 17,0 kts (5 Bft) W-SW 248 0 min 0,0 UV-I 0 W/m -2,2 C -14,5 C 20,0 kts (5 Bft) 100,00 %
25.01.2021 01:30 -0,6 C 88 % 1000,1 hPa 0,0 l/m 14,7 kts (4 Bft) W 263 0 min 0,0 UV-I 0 W/m -2,3 C -13,4 C 21,7 kts (6 Bft) 95,65 %
25.01.2021 01:29 -0,6 C 88 % 1000,1 hPa 0,0 l/m 14,0 kts (4 Bft) W 281 0 min 0,0 UV-I 0 W/m -2,3 C -12,9 C 20,0 kts (5 Bft) 100,00 %
25.01.2021 01:28 -0,5 C 88 % 1000,1 hPa 0,0 l/m 13,4 kts (4 Bft) W-SW 237 0 min 0,0 UV-I 0 W/m -2,2 C -12,4 C 18,3 kts (5 Bft) 100,00 %
25.01.2021 01:27 -0,5 C 88 % 1000,1 hPa 0,0 l/m 13,4 kts (4 Bft) W 273 0 min 0,0 UV-I 0 W/m -2,2 C -12,4 C 16,5 kts (5 Bft) 100,00 %
25.01.2021 01:26 -0,5 C 88 % 1000,1 hPa 0,0 l/m 15,5 kts (4 Bft) W-SW 244 0 min 0,0 UV-I 0 W/m -2,2 C -13,7 C 18,3 kts (5 Bft) 100,00 %
25.01.2021 01:25 -0,5 C 88 % 1000,1 hPa 0,0 l/m 14,1 kts (4 Bft) W 263 0 min 0,0 UV-I 0 W/m -2,2 C -12,8 C 16,5 kts (5 Bft) 100,00 %
25.01.2021 01:24 -0,5 C 88 % 1000,2 hPa 0,0 l/m 13,5 kts (4 Bft) W-SW 252 0 min 0,0 UV-I 0 W/m -2,2 C -12,4 C 20,0 kts (5 Bft) 100,00 %
25.01.2021 01:23 -0,5 C 88 % 1000,1 hPa 0,0 l/m 14,0 kts (4 Bft) W-SW 254 0 min 0,0 UV-I 0 W/m -2,2 C -12,8 C 15,7 kts (5 Bft) 100,00 %
25.01.2021 01:22 -0,6 C 88 % 1000,1 hPa 0,0 l/m 14,8 kts (4 Bft) W 269 0 min 0,0 UV-I 0 W/m -2,3 C -13,4 C 17,4 kts (5 Bft) 100,00 %
25.01.2021 01:21 -0,5 C 88 % 1000,1 hPa 0,0 l/m 18,3 kts (5 Bft) W 268 0 min 0,0 UV-I 0 W/m -2,2 C -15,2 C 21,7 kts (6 Bft) 100,00 %
25.01.2021 01:20 -0,6 C 88 % 1000,2 hPa 0,0 l/m 13,4 kts (4 Bft) W-SW 254 0 min 0,0 UV-I 0 W/m -2,3 C -12,5 C 18,3 kts (5 Bft) 100,00 %
25.01.2021 01:19 -0,5 C 88 % 1000,1 hPa 0,0 l/m 11,6 kts (4 Bft) W 266 0 min 0,0 UV-I 0 W/m -2,2 C -10,9 C 13,0 kts (4 Bft) 100,00 %
25.01.2021 01:18 -0,5 C 88 % 1000,1 hPa 0,0 l/m 10,1 kts (3 Bft) SW 223 0 min 0,0 UV-I 0 W/m -2,2 C -9,6 C 14,8 kts (4 Bft) 100,00 %
25.01.2021 01:17 -0,5 C 88 % 1000,2 hPa 0,0 l/m 11,7 kts (4 Bft) W-SW 257 0 min 0,0 UV-I 0 W/m -2,2 C -11,1 C 13,9 kts (4 Bft) 100,00 %
25.01.2021 01:16 -0,6 C 88 % 1000,2 hPa 0,0 l/m 12,5 kts (4 Bft) W-SW 254 0 min 0,0 UV-I 0 W/m -2,3 C -11,8 C 14,8 kts (4 Bft) 98,27 %
25.01.2021 01:15 -0,5 C 88 % 1000,2 hPa 0,0 l/m 15,7 kts (5 Bft) W 279 0 min 0,0 UV-I 0 W/m -2,2 C -13,8 C 17,4 kts (5 Bft) 100,00 %
25.01.2021 01:14 -0,6 C 88 % 1000,2 hPa 0,0 l/m 10,4 kts (3 Bft) W 260 0 min 0,0 UV-I 0 W/m -2,3 C -10,1 C 14,8 kts (4 Bft) 100,00 %
25.01.2021 01:13 -0,6 C 88 % 1000,1 hPa 0,0 l/m 11,3 kts (4 Bft) W 266 0 min 0,0 UV-I 0 W/m -2,3 C -10,9 C 14,8 kts (4 Bft) 100,00 %
25.01.2021 01:12 -0,6 C 88 % 1000,1 hPa 0,0 l/m 9,6 kts (3 Bft) W-SW 257 0 min 0,0 UV-I 0 W/m -2,3 C -9,3 C 14,8 kts (4 Bft) 100,00 %
25.01.2021 01:11 -0,6 C 88 % 1000,1 hPa 0,0 l/m 9,3 kts (3 Bft) W-SW 244 0 min 0,0 UV-I 0 W/m -2,3 C -9,0 C 10,4 kts (3 Bft) 95,00 %
25.01.2021 01:10 -0,6 C 88 % 1000,1 hPa 0,0 l/m 10,8 kts (4 Bft) W 268 0 min 0,0 UV-I 0 W/m -2,3 C -10,4 C 12,1 kts (4 Bft) 100,00 %
25.01.2021 01:09 -0,6 C 88 % 1000,1 hPa 0,0 l/m 13,3 kts (4 Bft) W-SW 258 0 min 0,0 UV-I 0 W/m -2,3 C -12,4 C 14,8 kts (4 Bft) 100,00 %
25.01.2021 01:08 -0,6 C 88 % 1000,1 hPa 0,0 l/m 12,3 kts (4 Bft) SW 229 0 min 0,0 UV-I 0 W/m -2,3 C -11,6 C 13,9 kts (4 Bft) 100,00 %
25.01.2021 01:07 -0,6 C 88 % 1000,1 hPa 0,0 l/m 10,8 kts (4 Bft) W 259 0 min 0,0 UV-I 0 W/m -2,3 C -10,4 C 13,9 kts (4 Bft) 100,00 %
25.01.2021 01:06 -0,6 C 88 % 1000,1 hPa 0,0 l/m 12,6 kts (4 Bft) W-SW 252 0 min 0,0 UV-I 0 W/m -2,3 C -11,9 C 16,5 kts (5 Bft) 100,00 %
25.01.2021 01:05 -0,6 C 88 % 1000,1 hPa 0,0 l/m 13,7 kts (4 Bft) W-SW 245 0 min 0,0 UV-I 0 W/m -2,3 C -12,7 C 16,5 kts (5 Bft) 95,83 %
25.01.2021 01:04 -0,6 C 88 % 1000,1 hPa 0,0 l/m 11,9 kts (4 Bft) W-SW 240 0 min 0,0 UV-I 0 W/m -2,3 C -11,4 C 14,8 kts (4 Bft) 100,00 %
25.01.2021 01:03 -0,6 C 88 % 1000,1 hPa 0,0 l/m 10,6 kts (3 Bft) SW 233 0 min 0,0 UV-I 0 W/m -2,3 C -10,2 C 13,0 kts (4 Bft) 100,00 %
25.01.2021 01:02 -0,6 C 88 % 1000,0 hPa 0,0 l/m 10,3 kts (3 Bft) W 265 0 min 0,0 UV-I 0 W/m -2,3 C -10,0 C 13,0 kts (4 Bft) 95,65 %
25.01.2021 01:01 -0,6 C 88 % 1000,1 hPa 0,0 l/m 11,2 kts (4 Bft) W-SW 249 0 min 0,0 UV-I 0 W/m -2,3 C -10,8 C 13,9 kts (4 Bft) 96,30 %
25.01.2021 01:00 -0,6 C 88 % 1000,0 hPa 0,0 l/m 8,9 kts (3 Bft) W-SW 246 0 min 0,0 UV-I 0 W/m -2,3 C -8,5 C 13,9 kts (4 Bft) 100,00 %
25.01.2021 00:59 -0,6 C 88 % 1000,0 hPa 0,0 l/m 11,0 kts (4 Bft) W-SW 248 0 min 0,0 UV-I 0 W/m -2,3 C -10,5 C 13,0 kts (4 Bft) 95,83 %
25.01.2021 00:58 -0,6 C 88 % 1000,1 hPa 0,0 l/m 15,6 kts (5 Bft) W 259 0 min 0,0 UV-I 0 W/m -2,3 C -13,9 C 17,4 kts (5 Bft) 100,00 %
25.01.2021 00:57 -0,6 C 88 % 1000,1 hPa 0,0 l/m 14,8 kts (4 Bft) W-SW 256 0 min 0,0 UV-I 0 W/m -2,3 C -13,4 C 19,1 kts (5 Bft) 95,83 %
25.01.2021 00:56 -0,6 C 88 % 1000,1 hPa 0,0 l/m 11,4 kts (4 Bft) W-SW 252 0 min 0,0 UV-I 0 W/m -2,3 C -10,9 C 14,8 kts (4 Bft) 100,00 %
25.01.2021 00:55 -0,6 C 88 % 1000,1 hPa 0,0 l/m 12,5 kts (4 Bft) W 259 0 min 0,0 UV-I 0 W/m -2,3 C -11,8 C 14,8 kts (4 Bft) 100,00 %
25.01.2021 00:54 -0,6 C 88 % 1000,1 hPa 0,0 l/m 14,2 kts (4 Bft) W-SW 250 0 min 0,0 UV-I 0 W/m -2,3 C -13,0 C 16,5 kts (5 Bft) 96,15 %
25.01.2021 00:53 -0,6 C 88 % 1000,0 hPa 0,0 l/m 15,2 kts (4 Bft) W 260 0 min 0,0 UV-I 0 W/m -2,3 C -13,7 C 16,5 kts (5 Bft) 97,37 %
25.01.2021 00:52 -0,6 C 88 % 1000,0 hPa 0,0 l/m 12,4 kts (4 Bft) W-SW 243 0 min 0,0 UV-I 0 W/m -2,3 C -11,7 C 15,7 kts (5 Bft) 100,00 %
25.01.2021 00:51 -0,6 C 88 % 1000,1 hPa 0,0 l/m 11,9 kts (4 Bft) W-SW 243 0 min 0,0 UV-I 0 W/m -2,3 C -11,4 C 13,9 kts (4 Bft) 100,00 %
25.01.2021 00:50 -0,6 C 88 % 1000,0 hPa 0,0 l/m 11,4 kts (4 Bft) W-SW 258 0 min 0,0 UV-I 0 W/m -2,3 C -11,0 C 13,9 kts (4 Bft) 95,83 %
25.01.2021 00:49 -0,6 C 88 % 1000,0 hPa 0,0 l/m 12,1 kts (4 Bft) W-SW 252 0 min 0,0 UV-I 0 W/m -2,3 C -11,5 C 15,7 kts (5 Bft) 100,00 %
25.01.2021 00:48 -0,6 C 88 % 1000,0 hPa 0,0 l/m 8,6 kts (3 Bft) SW 220 0 min 0,0 UV-I 0 W/m -2,3 C -8,3 C 11,3 kts (4 Bft) 95,83 %
25.01.2021 00:47 -0,6 C 88 % 1000,0 hPa 0,0 l/m 7,0 kts (3 Bft) W-SW 250 0 min 0,0 UV-I 0 W/m -2,3 C -6,3 C 10,4 kts (3 Bft) 95,65 %
25.01.2021 00:46 -0,6 C 88 % 1000,0 hPa 0,0 l/m 10,6 kts (3 Bft) W 273 0 min 0,0 UV-I 0 W/m -2,3 C -10,2 C 14,8 kts (4 Bft) 91,67 %
25.01.2021 00:45 -0,6 C 88 % 1000,0 hPa 0,0 l/m 10,4 kts (3 Bft) W-SW 257 0 min 0,0 UV-I 0 W/m -2,3 C -10,0 C 12,1 kts (4 Bft) 100,00 %
25.01.2021 00:44 -0,6 C 88 % 1000,0 hPa 0,0 l/m 12,5 kts (4 Bft) W-SW 244 0 min 0,0 UV-I 0 W/m -2,3 C -11,8 C 14,8 kts (4 Bft) 97,87 %
25.01.2021 00:43 -0,6 C 88 % 1000,0 hPa 0,0 l/m 11,2 kts (4 Bft) W 263 0 min 0,0 UV-I 0 W/m -2,3 C -10,7 C 15,7 kts (5 Bft) 98,35 %
25.01.2021 00:42 -0,6 C 88 % 1000,0 hPa 0,0 l/m 9,4 kts (3 Bft) W-SW 250 0 min 0,0 UV-I 0 W/m -2,3 C -9,1 C 12,1 kts (4 Bft) 92,31 %
25.01.2021 00:41 -0,6 C 88 % 1000,0 hPa 0,0 l/m 8,7 kts (3 Bft) W-SW 243 0 min 0,0 UV-I 0 W/m -2,3 C -8,4 C 9,6 kts (3 Bft) 100,00 %
25.01.2021 00:40 -0,6 C 88 % 1000,0 hPa 0,0 l/m 8,8 kts (3 Bft) W-SW 244 0 min 0,0 UV-I 0 W/m -2,3 C -8,5 C 11,3 kts (4 Bft) 95,83 %
25.01.2021 00:39 -0,6 C 88 % 1000,0 hPa 0,0 l/m 8,9 kts (3 Bft) W-SW 243 0 min 0,0 UV-I 0 W/m -2,3 C -8,6 C 13,0 kts (4 Bft) 100,00 %
25.01.2021 00:38 -0,6 C 88 % 1000,0 hPa 0,0 l/m 13,7 kts (4 Bft) W-SW 250 0 min 0,0 UV-I 0 W/m -2,3 C -12,7 C 17,4 kts (5 Bft) 95,83 %
25.01.2021 00:37 -0,6 C 88 % 1000,0 hPa 0,0 l/m 12,7 kts (4 Bft) W 264 0 min 0,0 UV-I 0 W/m -2,3 C -12,0 C 14,8 kts (4 Bft) 100,00 %
25.01.2021 00:36 -0,6 C 88 % 1000,1 hPa 0,0 l/m 12,8 kts (4 Bft) W 272 0 min 0,0 UV-I 0 W/m -2,3 C -12,0 C 16,5 kts (5 Bft) 96,00 %
25.01.2021 00:35 -0,6 C 88 % 1000,0 hPa 0,0 l/m 13,4 kts (4 Bft) W-SW 250 0 min 0,0 UV-I 0 W/m -2,3 C -12,5 C 16,5 kts (5 Bft) 100,00 %
25.01.2021 00:34 -0,6 C 88 % 1000,0 hPa 0,0 l/m 14,0 kts (4 Bft) W 259 0 min 0,0 UV-I 0 W/m -2,3 C -12,9 C 17,4 kts (5 Bft) 93,33 %
25.01.2021 00:33 -0,6 C 88 % 999,9 hPa 0,0 l/m 11,1 kts (4 Bft) W 275 0 min 0,0 UV-I 0 W/m -2,3 C -10,6 C 13,9 kts (4 Bft) 100,00 %
25.01.2021 00:32 -0,6 C 88 % 1000,0 hPa 0,0 l/m 14,4 kts (4 Bft) W-SW 255 0 min 0,0 UV-I 0 W/m -2,3 C -13,2 C 18,3 kts (5 Bft) 100,00 %
25.01.2021 00:31 -0,6 C 88 % 1000,0 hPa 0,0 l/m 15,6 kts (5 Bft) W 265 0 min 0,0 UV-I 0 W/m -2,3 C -13,9 C 17,4 kts (5 Bft) 93,94 %
25.01.2021 00:30 -0,6 C 88 % 999,9 hPa 0,0 l/m 12,0 kts (4 Bft) W 263 0 min 0,0 UV-I 0 W/m -2,3 C -11,4 C 16,5 kts (5 Bft) 92,86 %
25.01.2021 00:29 -0,6 C 88 % 999,9 hPa 0,0 l/m 12,3 kts (4 Bft) SW 234 0 min 0,0 UV-I 0 W/m -2,3 C -11,7 C 15,7 kts (5 Bft) 100,00 %
25.01.2021 00:28 -0,6 C 88 % 999,9 hPa 0,0 l/m 11,0 kts (4 Bft) W-SW 258 0 min 0,0 UV-I 0 W/m -2,3 C -10,5 C 13,9 kts (4 Bft) 96,55 %
25.01.2021 00:27 -0,6 C 88 % 999,8 hPa 0,0 l/m 12,5 kts (4 Bft) W 259 0 min 0,0 UV-I 0 W/m -2,3 C -11,8 C 13,9 kts (4 Bft) 100,00 %
25.01.2021 00:26 -0,6 C 88 % 999,9 hPa 0,0 l/m 12,5 kts (4 Bft) W-SW 255 0 min 0,0 UV-I 0 W/m -2,3 C -11,8 C 13,9 kts (4 Bft) 100,00 %
25.01.2021 00:25 -0,7 C 88 % 999,9 hPa 0,0 l/m 11,6 kts (4 Bft) W-SW 248 0 min 0,0 UV-I 0 W/m -2,4 C -11,2 C 13,0 kts (4 Bft) 100,00 %
25.01.2021 00:24 -0,6 C 88 % 999,9 hPa 0,0 l/m 12,7 kts (4 Bft) W-SW 252 0 min 0,0 UV-I 0 W/m -2,3 C -11,9 C 15,7 kts (5 Bft) 100,00 %
25.01.2021 00:23 -0,6 C 88 % 999,9 hPa 0,0 l/m 14,2 kts (4 Bft) W 259 0 min 0,0 UV-I 0 W/m -2,3 C -13,0 C 17,4 kts (5 Bft) 91,67 %
25.01.2021 00:22 -0,6 C 88 % 999,9 hPa 0,0 l/m 16,1 kts (5 Bft) W-SW 251 0 min 0,0 UV-I 0 W/m -2,3 C -14,2 C 19,1 kts (5 Bft) 100,00 %
25.01.2021 00:21 -0,7 C 88 % 999,9 hPa 0,0 l/m 16,0 kts (5 Bft) W-SW 252 0 min 0,0 UV-I 0 W/m -2,4 C -14,3 C 19,1 kts (5 Bft) 100,00 %
25.01.2021 00:20 -0,6 C 88 % 999,9 hPa 0,0 l/m 11,3 kts (4 Bft) W-SW 244 0 min 0,0 UV-I 0 W/m -2,3 C -10,9 C 13,0 kts (4 Bft) 94,12 %
25.01.2021 00:19 -0,6 C 88 % 999,9 hPa 0,0 l/m 10,0 kts (3 Bft) W 261 0 min 0,0 UV-I 0 W/m -2,3 C -9,7 C 13,0 kts (4 Bft) 96,30 %
25.01.2021 00:18 -0,7 C 88 % 999,8 hPa 0,0 l/m 10,4 kts (3 Bft) W-SW 253 0 min 0,0 UV-I 0 W/m -2,4 C -10,1 C 12,1 kts (4 Bft) 100,00 %
25.01.2021 00:17 -0,6 C 88 % 999,8 hPa 0,0 l/m 12,9 kts (4 Bft) W 263 0 min 0,0 UV-I 0 W/m -2,3 C -12,1 C 15,7 kts (5 Bft) 100,00 %
25.01.2021 00:16 -0,7 C 88 % 999,8 hPa 0,0 l/m 12,3 kts (4 Bft) W-SW 250 0 min 0,0 UV-I 0 W/m -2,4 C -11,8 C 15,7 kts (5 Bft) 92,86 %
25.01.2021 00:15 -0,7 C 89 % 999,9 hPa 0,0 l/m 9,9 kts (3 Bft) W-SW 243 0 min 0,0 UV-I 0 W/m -2,3 C -9,7 C 11,3 kts (4 Bft) 96,67 %
25.01.2021 00:14 -0,7 C 89 % 999,8 hPa 0,0 l/m 8,5 kts (3 Bft) SW 228 0 min 0,0 UV-I 0 W/m -2,3 C -8,3 C 11,3 kts (4 Bft) 100,00 %
25.01.2021 00:13 -0,7 C 89 % 999,7 hPa 0,0 l/m 8,3 kts (3 Bft) W-SW 244 0 min 0,0 UV-I 0 W/m -2,3 C -8,1 C 13,0 kts (4 Bft) 100,00 %
25.01.2021 00:12 -0,7 C 89 % 999,8 hPa 0,0 l/m 9,8 kts (3 Bft) W-SW 248 0 min 0,0 UV-I 0 W/m -2,3 C -9,6 C 11,3 kts (4 Bft) 100,00 %
25.01.2021 00:11 -0,7 C 89 % 999,7 hPa 0,0 l/m 9,4 kts (3 Bft) W-SW 242 0 min 0,0 UV-I 0 W/m -2,3 C -9,2 C 12,1 kts (4 Bft) 100,00 %
25.01.2021 00:10 -0,7 C 89 % 999,8 hPa 0,0 l/m 11,2 kts (4 Bft) W-SW 246 0 min 0,0 UV-I 0 W/m -2,3 C -10,9 C 13,0 kts (4 Bft) 100,00 %
25.01.2021 00:09 -0,7 C 89 % 999,7 hPa 0,0 l/m 14,0 kts (4 Bft) W-SW 251 0 min 0,0 UV-I 0 W/m -2,3 C -13,0 C 15,7 kts (5 Bft) 100,00 %
25.01.2021 00:08 -0,7 C 89 % 999,8 hPa 0,0 l/m 10,6 kts (3 Bft) W-SW 242 0 min 0,0 UV-I 0 W/m -2,3 C -10,3 C 13,0 kts (4 Bft) 96,97 %
25.01.2021 00:07 -0,7 C 89 % 999,8 hPa 0,0 l/m 11,9 kts (4 Bft) W 270 0 min 0,0 UV-I 0 W/m -2,3 C -11,4 C 13,9 kts (4 Bft) 100,00 %
25.01.2021 00:06 -0,7 C 89 % 999,8 hPa 0,0 l/m 12,3 kts (4 Bft) W-SW 246 0 min 0,0 UV-I 0 W/m -2,3 C -11,7 C 15,7 kts (5 Bft) 100,00 %
25.01.2021 00:05 -0,7 C 89 % 999,8 hPa 0,0 l/m 10,9 kts (4 Bft) W 264 0 min 0,0 UV-I 0 W/m -2,3 C -10,6 C 14,8 kts (4 Bft) 100,00 %
25.01.2021 00:04 -0,7 C 89 % 999,7 hPa 0,0 l/m 10,4 kts (3 Bft) W-SW 246 0 min 0,0 UV-I 0 W/m -2,3 C -10,1 C 12,1 kts (4 Bft) 100,00 %
25.01.2021 00:03 -0,7 C 89 % 999,8 hPa 0,0 l/m 10,4 kts (3 Bft) W-SW 254 0 min 0,0 UV-I 0 W/m -2,3 C -10,1 C 12,1 kts (4 Bft) 100,00 %
25.01.2021 00:02 -0,7 C 89 % 999,7 hPa 0,0 l/m 13,2 kts (4 Bft) W-SW 238 0 min 0,0 UV-I 0 W/m -2,3 C -12,4 C 15,7 kts (5 Bft) 100,00 %
25.01.2021 00:01 -0,7 C 89 % 999,8 hPa 0,0 l/m 11,2 kts (4 Bft) W 260 0 min 0,0 UV-I 0 W/m -2,3 C -10,9 C 13,0 kts (4 Bft) 100,00 %
25.01.2021 00:00 -0,7 C 89 % 999,7 hPa 0,0 l/m 9,0 kts (3 Bft) W-SW 255 0 min 0,0 UV-I 0 W/m -2,3 C -8,8 C 11,3 kts (4 Bft) 100,00 %
_ Min-Zeit 06:03 00:16 00:00 - 08:29 - - - - - 07:56 01:21 05:44 06:27
Minimum _ -1,6 C 88 % 999,7 hPa - 6,0 kts (2 Bft) - - - - - -3,0 C -15,2 C 6,1 kts (2 Bft) 91,30 %
_ Max-Zeit 00:57 06:05 08:46 00:00 01:21 - - 00:00 00:00 08:48 04:25 02:20 01:21 00:00
Maximum _ -0,5 C 92 % 1002,1 hPa 0,0 l/m 18,3 kts
W (5 Bft)
- - 0 min 0,0 UV-I 97 W/m -1,9 C -5,5 C 21,7 kts
W (6 Bft)
100,00 %
Durchschnitt _ -0,9 C 90 % 1000,6 hPa #0,0 l/m 11,1 kts (4 Bft) W - #0 min. 0,0 UV-I 36 W/m -2,4 C -11,0 C 13,3 kts (4 Bft) 98,82 %